Home > Products > Valid Products > TAF

000
FTUS41 KOKX 271722
TAFJFK
TAF
KJFK 271722Z 2718/2824 18018G24KT P6SM FEW020 BKN040
      TEMPO 2722/2724 -SHRA SCT020 BKN040
     FM280100 19015KT P6SM SCT010 BKN040
     FM280400 19010KT P6SM SCT010 BKN040
     FM280700 19007KT 5SM BR BKN010
     FM281400 19013KT P6SM SCT012 BKN200
     FM281800 19016G21KT P6SM FEW020 BKN040=



000
FTUS41 KOKX 271722
TAFEWR
TAF
KEWR 271722Z 2718/2824 16010KT P6SM FEW020 BKN040
     FM272000 17013G21KT P6SM VCTS FEW020 BKN040CB
      TEMPO 2721/2724 -TSRA SCT020 BKN040CB
     FM280100 21010KT P6SM SCT010 BKN040
     FM280400 21007KT P6SM SCT010 BKN040
     FM280700 21006KT 5SM BR BKN010
     FM281400 22010KT P6SM SCT012 BKN200
     FM281600 22011KT P6SM FEW020 BKN040
     FM282000 26011G17KT P6SM BKN040=



000
FTUS41 KOKX 271722
TAFTEB
TAF
KTEB 271722Z 2718/2818 18010G16KT P6SM FEW020 BKN040
     FM272000 17011G17KT P6SM VCTS FEW020 BKN040CB
      TEMPO 2721/2724 -TSRA SCT020 BKN040CB
     FM280100 21009KT P6SM SCT010 BKN040
     FM280400 21006KT P6SM SCT010 BKN040
     FM280700 20005KT 5SM BR BKN010
     FM281400 22010KT P6SM SCT012 BKN200
     FM281600 22011KT P6SM FEW020 BKN040=



000
FTUS41 KOKX 271722
TAFISP
TAF
KISP 271722Z 2718/2818 21014G22KT P6SM SCT015 BKN030
      TEMPO 2718/2719 BKN015
     FM280100 20011KT 6SM BR SCT010 BKN040
     FM280600 19007KT 3SM BR SCT004 BKN008
      TEMPO 2809/2812 1SM BR BKN004 OVC008
     FM281400 20011KT 5SM BR SCT008 BKN200
      TEMPO 2814/2816 BKN008
     FM281600 20013KT P6SM SCT015 BKN040=



000
FTUS41 KOKX 271722
TAFGON
TAF
KGON 271722Z 2718/2818 19010KT P6SM SCT015 BKN040
      TEMPO 2718/2720 BKN015
     FM272000 21008KT 6SM HZ SCT040 BKN120
     FM280100 21006KT 3SM BR BKN010
     FM280600 20005KT 1SM BR BKN005
      TEMPO 2808/2811 1/2SM FG OVC002
     FM281400 20008KT 3SM BR BKN008=



000
FTUS41 KOKX 271722
TAFSWF
TAF
KSWF 271722Z 2718/2824 21010KT P6SM SCT025 BKN040
     FM272100 21010KT P6SM VCTS FEW020 BKN040CB
      TEMPO 2721/2724 -TSRA SCT020 BKN040CB
     FM280100 20008KT P6SM SCT010 BKN040
     FM280400 23005KT P6SM SCT010 BKN040
     FM280700 21004KT 5SM BR BKN010
     FM281400 25011KT P6SM SCT012 BKN200
     FM281800 29011KT P6SM FEW020 BKN040
     FM282000 26011G17KT P6SM BKN040
      AMD NOT SKED=



000
FTUS41 KOKX 271722
TAFLGA
TAF
KLGA 271722Z 2718/2818 17015G22KT P6SM FEW020 BKN040
      TEMPO 2722/2724 -SHRA SCT020 BKN040
     FM280100 19012KT P6SM SCT010 BKN040
     FM280400 19009KT P6SM SCT010 BKN040
     FM280700 19007KT 5SM BR BKN010
     FM281400 20011KT P6SM SCT012 BKN200=



000
FTUS41 KOKX 271722
TAFBDR
TAF
KBDR 271722Z 2718/2818 19013G19KT P6SM SCT020 BKN040
     FM280100 20008KT P6SM SCT010 BKN040
     FM280600 20005KT 4SM BR SCT006 BKN010
      TEMPO 2809/2812 2SM BR BKN006
     FM281400 20010KT 5SM BR SCT010 BKN200
     FM281600 20011KT P6SM FEW020 BKN040=



000
FTUS41 KOKX 271641 AAD
TAFISP
TAF AMD
KISP 271641Z 2717/2812 19010KT P6SM BKN008 BKN040
      TEMPO 2717/2718 SCT008
     FM271800 19013G21KT P6SM SCT015 BKN040
     FM280100 20011KT 6SM BR SCT010 BKN040
     FM280700 19007KT 5SM BR BKN008=



000
FTUS41 KOKX 271616 AAF
TAFJFK
TAF AMD
KJFK 271616Z 2716/2818 18013G20KT P6SM BKN025
      TEMPO 2717/2718 SCT025 BKN040
     FM271800 18020G25KT P6SM SCT025 BKN040
     FM280100 19015KT P6SM SCT010 BKN040
     FM280700 19009KT 5SM BR BKN010
     FM281400 19015KT P6SM SCT012 BKN200=



000
FTUS41 KOKX 271616 AAF
TAFJFK
TAF AMD
KJFK 271616Z 2716/2818 18013G20KT P6SM BKN025
      TEMPO 2717/2718 SCT025 BKN040
     FM271800 18020G25KT P6SM SCT025 BKN040
     FM280100 19015KT P6SM SCT010 BKN040
     FM280700 19009KT 5SM BR BKN010
     FM281400 19015KT P6SM SCT012 BKN200=



000
FTUS41 KOKX 271615 AAE
TAFEWR
TAF AMD
KEWR 271615Z 2716/2818 16010KT P6SM BKN025
      TEMPO 2716/2717 SCT025 BKN040
     FM271700 17012G20KT P6SM SCT025 BKN040
      TEMPO 2717/2718 BKN025
     FM280100 21010KT P6SM SCT010 BKN040
     FM280700 21006KT 5SM BR BKN010
     FM281400 22011KT P6SM SCT012 BKN200=



000
FTUS41 KOKX 271524 AAE
TAFLGA
TAF AMD
KLGA 271524Z 2715/2812 18011G16KT P6SM BKN020 BKN040
      TEMPO 2715/2717 SCT020 BKN040
     FM271700 18011G16KT P6SM SCT020 BKN040
     FM271900 18018G23KT P6SM BKN040
     FM280100 19012KT P6SM SCT010 BKN040
     FM280700 19009KT 5SM BR BKN010=



000
FTUS41 KOKX 271524 AAD
TAFEWR
TAF AMD
KEWR 271524Z 2715/2818 23012G18KT P6SM BKN020
      TEMPO 2715/2717 SCT020 BKN040
     FM271700 21012G20KT P6SM SCT020 BKN040
     FM280100 21010KT P6SM SCT010 BKN040
     FM280700 21006KT 5SM BR BKN010
     FM281400 22011KT P6SM SCT012 BKN200=



000
FTUS41 KOKX 271524 AAD
TAFEWR
TAF AMD
KEWR 271524Z 2715/2818 23012G18KT P6SM BKN020
      TEMPO 2715/2717 SCT020 BKN040
     FM271700 21012G20KT P6SM SCT020 BKN040
     FM280100 21010KT P6SM SCT010 BKN040
     FM280700 21006KT 5SM BR BKN010
     FM281400 22011KT P6SM SCT012 BKN200=



000
FTUS41 KOKX 271524 AAE
TAFLGA
TAF AMD
KLGA 271524Z 2715/2812 18011G16KT P6SM BKN020 BKN040
      TEMPO 2715/2717 SCT020 BKN040
     FM271700 18011G16KT P6SM SCT020 BKN040
     FM271900 18018G23KT P6SM BKN040
     FM280100 19012KT P6SM SCT010 BKN040
     FM280700 19009KT 5SM BR BKN010=



000
FTUS41 KOKX 271524 AAE
TAFJFK
TAF AMD
KJFK 271524Z 2715/2818 18011G17KT P6SM BKN015
      TEMPO 2715/2717 SCT015 BKN040
     FM271700 18012G18KT P6SM SCT020 BKN040
     FM271900 18020G25KT P6SM BKN040
     FM280100 19015KT P6SM SCT010 BKN040
     FM280700 19009KT 5SM BR BKN010
     FM281400 19015KT P6SM SCT012 BKN200=



000
FTUS41 KOKX 271524 AAE
TAFJFK
TAF AMD
KJFK 271524Z 2715/2818 18011G17KT P6SM BKN015
      TEMPO 2715/2717 SCT015 BKN040
     FM271700 18012G18KT P6SM SCT020 BKN040
     FM271900 18020G25KT P6SM BKN040
     FM280100 19015KT P6SM SCT010 BKN040
     FM280700 19009KT 5SM BR BKN010
     FM281400 19015KT P6SM SCT012 BKN200=



000
FTUS41 KOKX 271524 AAD
TAFTEB
TAF AMD
KTEB 271524Z 2715/2812 22011KT P6SM BKN020
      TEMPO 2715/2717 SCT020 BKN040
     FM271700 21011G18KT P6SM SCT020 BKN040
     FM280100 21009KT P6SM SCT010 BKN040
     FM280700 19004KT 5SM BR BKN010=



000
FTUS41 KOKX 271524 AAD
TAFTEB
TAF AMD
KTEB 271524Z 2715/2812 22011KT P6SM BKN020
      TEMPO 2715/2717 SCT020 BKN040
     FM271700 21011G18KT P6SM SCT020 BKN040
     FM280100 21009KT P6SM SCT010 BKN040
     FM280700 19004KT 5SM BR BKN010=



000
FTUS41 KOKX 271420 AAC
TAFISP
TAF AMD
KISP 271420Z 2714/2812 21011KT P6SM BKN008 BKN040
     FM271600 19012G18KT P6SM SCT012 BKN040
      TEMPO 2716/2717 BKN012
     FM271800 19016G21KT P6SM SCT020 BKN040
     FM280100 20011KT 6SM BR SCT010 BKN040
     FM280700 19007KT 5SM BR BKN008=



000
FTUS41 KOKX 271420 AAD
TAFJFK
TAF AMD
KJFK 271420Z 2714/2818 18010KT P6SM BKN015
      TEMPO 2715/2716 SCT015 BKN040
     FM271600 18012G18KT P6SM SCT020 BKN040
     FM271900 18020G25KT P6SM BKN040
     FM280100 19015KT P6SM SCT010 BKN040
     FM280700 19009KT 5SM BR BKN010
     FM281400 19015KT P6SM SCT012 BKN200=



000
FTUS41 KOKX 271420 AAC
TAFTEB
TAF AMD
KTEB 271420Z 2714/2812 22011KT P6SM BKN015
      TEMPO 2715/2716 SCT015 BKN040
     FM271600 21011G16KT P6SM SCT020 BKN040
     FM271800 20012G18KT P6SM BKN040
     FM280100 21009KT P6SM SCT010 BKN040
     FM280700 19004KT 5SM BR BKN010=



000
FTUS41 KOKX 271420 AAC
TAFBDR
TAF AMD
KBDR 271420Z 2714/2812 20009KT P6SM SCT015 BKN040
      TEMPO 2714/2716 BKN015 BKN040
     FM271600 20010KT P6SM SCT020 BKN040
     FM271800 19012G17KT P6SM BKN040
     FM280100 20008KT P6SM SCT010 BKN040
     FM280700 20005KT 5SM BR BKN010=



000
FTUS41 KOKX 271420 AAC
TAFEWR
TAF AMD
KEWR 271420Z 2714/2818 22011KT P6SM BKN018
      TEMPO 2715/2716 SCT018 BKN040
     FM271600 21010G17KT P6SM SCT020 BKN040
     FM271800 20012G20KT P6SM BKN040
     FM280100 21010KT P6SM SCT010 BKN040
     FM280700 21006KT 5SM BR BKN010
     FM281400 22011KT P6SM SCT012 BKN200=



000
FTUS41 KOKX 271420 AAB
TAFSWF
TAF AMD
KSWF 271420Z 2714/2818 22009KT P6SM SCT020 BKN040
      TEMPO 2715/2716 BKN020
     FM271600 21010KT P6SM SCT020 BKN040
     FM272100 20014KT P6SM VCTS BKN040CB
      TEMPO 2721/2723 4SM -TSRA BR SCT020 BKN040CB
     FM280100 20008KT 6SM BR SCT008 BKN200
     FM280700 23005KT 5SM BR SCT008 BKN200
     FM281400 25011KT P6SM BKN200
      AMD NOT SKED=



000
FTUS41 KOKX 271420 AAD
TAFLGA
TAF AMD
KLGA 271420Z 2714/2812 18010KT P6SM BKN015
      TEMPO 2715/2716 SCT015 BKN040
     FM271600 18011G16KT P6SM SCT020 BKN040
     FM271900 18018G23KT P6SM BKN040
     FM280100 19012KT P6SM SCT010 BKN040
     FM280700 19009KT 5SM BR BKN010=



000
FTUS41 KOKX 271420 AAB
TAFGON
TAF AMD
KGON 271420Z 2714/2812 18007KT P6SM BKN015 BKN040
     FM271600 18010KT P6SM SCT020 BKN040
     FM272000 21008KT 6SM HZ SCT040 BKN120
     FM280100 21006KT 3SM BR BKN010
     FM280600 20005KT 1SM BR BKN005=



000
FTUS41 KOKX 271420 AAC
TAFISP
TAF AMD
KISP 271420Z 2714/2812 21011KT P6SM BKN008 BKN040
     FM271600 19012G18KT P6SM SCT012 BKN040
      TEMPO 2716/2717 BKN012
     FM271800 19016G21KT P6SM SCT020 BKN040
     FM280100 20011KT 6SM BR SCT010 BKN040
     FM280700 19007KT 5SM BR BKN008=



000
FTUS41 KOKX 271420 AAC
TAFEWR
TAF AMD
KEWR 271420Z 2714/2818 22011KT P6SM BKN018
      TEMPO 2715/2716 SCT018 BKN040
     FM271600 21010G17KT P6SM SCT020 BKN040
     FM271800 20012G20KT P6SM BKN040
     FM280100 21010KT P6SM SCT010 BKN040
     FM280700 21006KT 5SM BR BKN010
     FM281400 22011KT P6SM SCT012 BKN200=



000
FTUS41 KOKX 271420 AAD
TAFLGA
TAF AMD
KLGA 271420Z 2714/2812 18010KT P6SM BKN015
      TEMPO 2715/2716 SCT015 BKN040
     FM271600 18011G16KT P6SM SCT020 BKN040
     FM271900 18018G23KT P6SM BKN040
     FM280100 19012KT P6SM SCT010 BKN040
     FM280700 19009KT 5SM BR BKN010=



000
FTUS41 KOKX 271420 AAD
TAFJFK
TAF AMD
KJFK 271420Z 2714/2818 18010KT P6SM BKN015
      TEMPO 2715/2716 SCT015 BKN040
     FM271600 18012G18KT P6SM SCT020 BKN040
     FM271900 18020G25KT P6SM BKN040
     FM280100 19015KT P6SM SCT010 BKN040
     FM280700 19009KT 5SM BR BKN010
     FM281400 19015KT P6SM SCT012 BKN200=



000
FTUS41 KOKX 271420 AAC
TAFBDR
TAF AMD
KBDR 271420Z 2714/2812 20009KT P6SM SCT015 BKN040
      TEMPO 2714/2716 BKN015 BKN040
     FM271600 20010KT P6SM SCT020 BKN040
     FM271800 19012G17KT P6SM BKN040
     FM280100 20008KT P6SM SCT010 BKN040
     FM280700 20005KT 5SM BR BKN010=



000
FTUS41 KOKX 271420 AAC
TAFTEB
TAF AMD
KTEB 271420Z 2714/2812 22011KT P6SM BKN015
      TEMPO 2715/2716 SCT015 BKN040
     FM271600 21011G16KT P6SM SCT020 BKN040
     FM271800 20012G18KT P6SM BKN040
     FM280100 21009KT P6SM SCT010 BKN040
     FM280700 19004KT 5SM BR BKN010=



000
FTUS41 KOKX 271420 AAB
TAFSWF
TAF AMD
KSWF 271420Z 2714/2818 22009KT P6SM SCT020 BKN040
      TEMPO 2715/2716 BKN020
     FM271600 21010KT P6SM SCT020 BKN040
     FM272100 20014KT P6SM VCTS BKN040CB
      TEMPO 2721/2723 4SM -TSRA BR SCT020 BKN040CB
     FM280100 20008KT 6SM BR SCT008 BKN200
     FM280700 23005KT 5SM BR SCT008 BKN200
     FM281400 25011KT P6SM BKN200
      AMD NOT SKED=



000
FTUS41 KOKX 271420 AAB
TAFGON
TAF AMD
KGON 271420Z 2714/2812 18007KT P6SM BKN015 BKN040
     FM271600 18010KT P6SM SCT020 BKN040
     FM272000 21008KT 6SM HZ SCT040 BKN120
     FM280100 21006KT 3SM BR BKN010
     FM280600 20005KT 1SM BR BKN005=



000
FTUS41 KOKX 271331 AAA
TAFSWF
TAF AMD
KSWF 271331Z 2714/2818 22009KT P6SM SCT020 BKN050
      TEMPO 2714/2716 BKN020
     FM271600 21010KT P6SM FEW020 BKN040
     FM272100 20014KT P6SM VCTS BKN040CB
     FM280100 20008KT 6SM BR SCT008 BKN200
     FM280700 23005KT 5SM BR SCT008 BKN200
     FM281400 25011KT P6SM BKN200
      AMD NOT SKED=



000
FTUS41 KOKX 271330 AAB
TAFBDR
TAF AMD
KBDR 271330Z 2714/2812 20009KT P6SM BKN015
      TEMPO 2715/2716 SCT015 BKN040
     FM271600 20010KT P6SM FEW020 BKN050
     FM271800 19012G17KT P6SM BKN040
     FM280100 20008KT P6SM SCT010 BKN040
     FM280700 20005KT 5SM BR BKN010=



000
FTUS41 KOKX 271329 AAB
TAFISP
TAF AMD
KISP 271329Z 2713/2812 20011KT P6SM BKN008 BKN040
      TEMPO 2715/2716 SCT008 BKN040
     FM271600 19012G18KT P6SM FEW015 BKN050
     FM271800 19016G21KT P6SM BKN040
     FM280100 20011KT 6SM BR SCT010 BKN040
     FM280700 19007KT 5SM BR BKN008=



000
FTUS41 KOKX 271328 AAB
TAFTEB
TAF AMD
KTEB 271328Z 2713/2812 20009KT P6SM BKN015
      TEMPO 2715/2716 SCT015 BKN050
     FM271600 20011G16KT P6SM FEW020 BKN050
     FM271800 20012G18KT P6SM BKN040
     FM280100 21009KT P6SM SCT010 BKN040
     FM280700 19004KT 5SM BR BKN010=



000
FTUS41 KOKX 271328 AAB
TAFTEB
TAF AMD
KTEB 271328Z 2713/2812 20009KT P6SM BKN015
      TEMPO 2715/2716 SCT015 BKN050
     FM271600 20011G16KT P6SM FEW020 BKN050
     FM271800 20012G18KT P6SM BKN040
     FM280100 21009KT P6SM SCT010 BKN040
     FM280700 19004KT 5SM BR BKN010=



000
FTUS41 KOKX 271327 AAC
TAFJFK
TAF AMD
KJFK 271327Z 2713/2818 18010KT P6SM BKN015
      TEMPO 2715/2716 SCT015 BKN050
     FM271600 18012G18KT P6SM FEW020 BKN050
     FM271800 18020G25KT P6SM BKN040
     FM280100 19015KT P6SM SCT010 BKN040
     FM280700 19009KT 5SM BR BKN010
     FM281400 19015KT P6SM SCT012 BKN200=



000
FTUS41 KOKX 271327 AAB
TAFEWR
TAF AMD
KEWR 271327Z 2713/2818 22010KT P6SM BKN015
      TEMPO 2715/2716 SCT015 BKN050
     FM271600 21010G16KT P6SM FEW020 BKN050
     FM271800 20012G18KT P6SM BKN040
     FM280100 21010KT P6SM SCT010 BKN040
     FM280700 21006KT 5SM BR BKN010
     FM281400 22011KT P6SM SCT012 BKN200=



000
FTUS41 KOKX 271327 AAC
TAFLGA
TAF AMD
KLGA 271327Z 2713/2812 18010KT P6SM BKN015
      TEMPO 2715/2716 SCT015 BKN050
     FM271600 18011G16KT P6SM FEW020 BKN050
     FM271800 18018G23KT P6SM BKN040
     FM280100 19012KT P6SM SCT010 BKN040
     FM280700 19009KT 5SM BR BKN010=



000
FTUS41 KOKX 271306 AAA
TAFGON
TAF AMD
KGON 271306Z 2713/2812 18007KT P6SM SCT015 BKN040
      TEMPO 2713/2715 BKN015
     FM271600 18010KT P6SM SCT020 BKN035
     FM272000 21008KT 6SM HZ SCT040 BKN120
     FM280100 21006KT 3SM BR BKN010
     FM280600 20005KT 1SM BR BKN005=



000
FTUS41 KOKX 271305 AAA
TAFBDR
TAF AMD
KBDR 271305Z 2713/2812 20009KT P6SM BKN012
      TEMPO 2714/2715 SCT012 BKN050
     FM271500 20010KT P6SM FEW020 BKN050
     FM271800 19012G17KT P6SM BKN040
     FM280100 20008KT P6SM SCT010 BKN040
     FM280700 20005KT 5SM BR BKN010=



000
FTUS41 KOKX 271227 AAA
TAFISP
TAF AMD
KISP 271227Z 2712/2812 21011KT P6SM BKN008 BKN040
      TEMPO 2713/2714 SCT008 BKN040
     FM271400 19012G18KT P6SM FEW020 BKN050
     FM271800 19016G21KT P6SM BKN040
     FM280100 20011KT 6SM BR SCT010 BKN040
     FM280700 19007KT 5SM BR BKN008=



000
FTUS41 KOKX 271227 AAA
TAFISP
TAF AMD
KISP 271227Z 2712/2812 21011KT P6SM BKN008 BKN040
      TEMPO 2713/2714 SCT008 BKN040
     FM271400 19012G18KT P6SM FEW020 BKN050
     FM271800 19016G21KT P6SM BKN040
     FM280100 20011KT 6SM BR SCT010 BKN040
     FM280700 19007KT 5SM BR BKN008=



000
FTUS41 KOKX 271224 AAA
TAFTEB
TAF AMD
KTEB 271224Z 2712/2812 20008KT P6SM BKN012
      TEMPO 2713/2714 SCT012 BKN050
     FM271400 20010KT P6SM FEW020 BKN050
     FM271800 20012G18KT P6SM BKN040
     FM280100 21009KT P6SM SCT010 BKN040
     FM280700 19004KT 5SM BR BKN010=



000
FTUS41 KOKX 271224 AAB
TAFJFK
TAF AMD
KJFK 271224Z 2712/2818 18009KT P6SM BKN015
      TEMPO 2713/2714 SCT015 BKN050
     FM271400 18012G18KT P6SM FEW020 BKN050
     FM271800 18020G25KT P6SM BKN040
     FM280100 19015KT P6SM SCT010 BKN040
     FM280700 19009KT 5SM BR BKN010
     FM281400 19015KT P6SM SCT012 BKN200=



000
FTUS41 KOKX 271224 AAB
TAFLGA
TAF AMD
KLGA 271224Z 2712/2812 18009KT P6SM BKN015
      TEMPO 2713/2714 SCT015 BKN050
     FM271400 18011G16KT P6SM FEW020 BKN050
     FM271800 18018G23KT P6SM BKN040
     FM280100 19012KT P6SM SCT010 BKN040
     FM280700 19009KT 5SM BR BKN010=



000
FTUS41 KOKX 271224 AAB
TAFLGA
TAF AMD
KLGA 271224Z 2712/2812 18009KT P6SM BKN015
      TEMPO 2713/2714 SCT015 BKN050
     FM271400 18011G16KT P6SM FEW020 BKN050
     FM271800 18018G23KT P6SM BKN040
     FM280100 19012KT P6SM SCT010 BKN040
     FM280700 19009KT 5SM BR BKN010=



000
FTUS41 KOKX 271224 AAB
TAFJFK
TAF AMD
KJFK 271224Z 2712/2818 18009KT P6SM BKN015
      TEMPO 2713/2714 SCT015 BKN050
     FM271400 18012G18KT P6SM FEW020 BKN050
     FM271800 18020G25KT P6SM BKN040
     FM280100 19015KT P6SM SCT010 BKN040
     FM280700 19009KT 5SM BR BKN010
     FM281400 19015KT P6SM SCT012 BKN200=



000
FTUS41 KOKX 271224 AAA
TAFTEB
TAF AMD
KTEB 271224Z 2712/2812 20008KT P6SM BKN012
      TEMPO 2713/2714 SCT012 BKN050
     FM271400 20010KT P6SM FEW020 BKN050
     FM271800 20012G18KT P6SM BKN040
     FM280100 21009KT P6SM SCT010 BKN040
     FM280700 19004KT 5SM BR BKN010=



000
FTUS41 KOKX 271217 AAA
TAFEWR
TAF AMD
KEWR 271217Z 2712/2818 20009KT P6SM BKN012
     FM271400 21010G16KT P6SM FEW020 BKN050
     FM271800 20012G18KT P6SM BKN040
     FM280100 21010KT P6SM SCT010 BKN040
     FM280700 21006KT 5SM BR BKN010
     FM281400 22011KT P6SM SCT012 BKN200=



000
FTUS41 KOKX 271217 AAA
TAFEWR
TAF AMD
KEWR 271217Z 2712/2818 20009KT P6SM BKN012
     FM271400 21010G16KT P6SM FEW020 BKN050
     FM271800 20012G18KT P6SM BKN040
     FM280100 21010KT P6SM SCT010 BKN040
     FM280700 21006KT 5SM BR BKN010
     FM281400 22011KT P6SM SCT012 BKN200=



000
FTUS41 KOKX 271154 AAA
TAFLGA
TAF AMD
KLGA 271154Z 2712/2812 18009KT P6SM FEW012 SCT050 BKN200
      TEMPO 2712/2713 BKN012
     FM271400 18011G16KT P6SM BKN050
     FM271800 18018G23KT P6SM BKN040
     FM280100 19012KT P6SM SCT010 BKN040
     FM280700 19009KT 5SM BR BKN010=



000
FTUS41 KOKX 271153 AAA
TAFJFK
TAF AMD
KJFK 271153Z 2712/2818 18009KT P6SM FEW012 SCT050 BKN200
      TEMPO 2712/2713 BKN012
     FM271300 18012G18KT P6SM BKN050
     FM271800 18020G25KT P6SM BKN040
     FM280100 19015KT P6SM SCT010 BKN040
     FM280700 19009KT 5SM BR BKN010
     FM281400 19015KT P6SM SCT012 BKN200=



000
FTUS41 KOKX 271122
TAFJFK
TAF
KJFK 271122Z 2712/2818 18009KT P6SM FEW012 SCT050 BKN200
     FM271300 18012G18KT P6SM BKN050
     FM271800 18020G25KT P6SM BKN040
     FM280100 19015KT P6SM SCT010 BKN040
     FM280700 19009KT 5SM BR BKN010
     FM281400 19015KT P6SM SCT012 BKN200=



000
FTUS41 KOKX 271122
TAFSWF
TAF
KSWF 271122Z 2712/2818 VRB05KT P6SM SCT035 BKN100
     FM271500 21010KT P6SM BKN040
     FM272100 20014KT P6SM VCTS BKN040CB
     FM280100 20008KT 6SM BR SCT008 BKN200
     FM280700 23005KT 5SM BR SCT008 BKN200
     FM281400 25011KT P6SM BKN200
      AMD NOT SKED=



000
FTUS41 KOKX 271122
TAFISP
TAF
KISP 271122Z 2712/2812 21011KT P6SM SCT012 SCT050 BKN200
      TEMPO 2712/2713 BKN007
     FM271300 19012G18KT P6SM BKN050
     FM271800 19016G21KT P6SM BKN040
     FM280100 20011KT 6SM BR SCT010 BKN040
     FM280700 19007KT 5SM BR BKN008=



000
FTUS41 KOKX 271122
TAFGON
TAF
KGON 271122Z 2712/2812 VRB06KT 6SM BR FEW010 SCT035 BKN200
     FM271600 18010KT P6SM SCT020 BKN035
     FM272000 21008KT 6SM HZ SCT040 BKN120
     FM280100 21006KT 3SM BR BKN010
     FM280600 20005KT 1SM BR BKN005=



000
FTUS41 KOKX 271122
TAFTEB
TAF
KTEB 271122Z 2712/2812 20008KT P6SM FEW012 SCT050 BKN200
      TEMPO 2712/2713 BKN010
     FM271400 20010KT P6SM BKN050
     FM271800 20012G18KT P6SM BKN040
     FM280100 21009KT P6SM SCT010 BKN040
     FM280700 19004KT 5SM BR BKN010=



000
FTUS41 KOKX 271122
TAFEWR
TAF
KEWR 271122Z 2712/2818 20009KT P6SM FEW012 SCT050 BKN200
      TEMPO 2712/2713 BKN012
     FM271400 21010G16KT P6SM BKN050
     FM271800 20012G18KT P6SM BKN040
     FM280100 21010KT P6SM SCT010 BKN040
     FM280700 21006KT 5SM BR BKN010
     FM281400 22011KT P6SM SCT012 BKN200=



000
FTUS41 KOKX 271122
TAFLGA
TAF
KLGA 271122Z 2712/2812 18009KT P6SM FEW012 SCT050 BKN200
     FM271400 18011G16KT P6SM BKN050
     FM271800 18018G23KT P6SM BKN040
     FM280100 19012KT P6SM SCT010 BKN040
     FM280700 19009KT 5SM BR BKN010=



000
FTUS41 KOKX 271122
TAFBDR
TAF
KBDR 271122Z 2712/2812 21007KT P6SM FEW012 SCT050 BKN200
     FM271300 21010KT P6SM BKN050
     FM271800 19012G17KT P6SM BKN040
     FM280100 20008KT P6SM SCT010 BKN040
     FM280700 20005KT 5SM BR BKN010=



000
FTUS41 KOKX 271122
TAFJFK
TAF
KJFK 271122Z 2712/2818 18009KT P6SM FEW012 SCT050 BKN200
     FM271300 18012G18KT P6SM BKN050
     FM271800 18020G25KT P6SM BKN040
     FM280100 19015KT P6SM SCT010 BKN040
     FM280700 19009KT 5SM BR BKN010
     FM281400 19015KT P6SM SCT012 BKN200=



000
FTUS41 KOKX 271122
TAFEWR
TAF
KEWR 271122Z 2712/2818 20009KT P6SM FEW012 SCT050 BKN200
      TEMPO 2712/2713 BKN012
     FM271400 21010G16KT P6SM BKN050
     FM271800 20012G18KT P6SM BKN040
     FM280100 21010KT P6SM SCT010 BKN040
     FM280700 21006KT 5SM BR BKN010
     FM281400 22011KT P6SM SCT012 BKN200=



000
FTUS41 KOKX 271122
TAFGON
TAF
KGON 271122Z 2712/2812 VRB06KT 6SM BR FEW010 SCT035 BKN200
     FM271600 18010KT P6SM SCT020 BKN035
     FM272000 21008KT 6SM HZ SCT040 BKN120
     FM280100 21006KT 3SM BR BKN010
     FM280600 20005KT 1SM BR BKN005=



000
FTUS41 KOKX 271122
TAFLGA
TAF
KLGA 271122Z 2712/2812 18009KT P6SM FEW012 SCT050 BKN200
     FM271400 18011G16KT P6SM BKN050
     FM271800 18018G23KT P6SM BKN040
     FM280100 19012KT P6SM SCT010 BKN040
     FM280700 19009KT 5SM BR BKN010=



000
FTUS41 KOKX 271122
TAFTEB
TAF
KTEB 271122Z 2712/2812 20008KT P6SM FEW012 SCT050 BKN200
      TEMPO 2712/2713 BKN010
     FM271400 20010KT P6SM BKN050
     FM271800 20012G18KT P6SM BKN040
     FM280100 21009KT P6SM SCT010 BKN040
     FM280700 19004KT 5SM BR BKN010=



000
FTUS41 KOKX 271122
TAFISP
TAF
KISP 271122Z 2712/2812 21011KT P6SM SCT012 SCT050 BKN200
      TEMPO 2712/2713 BKN007
     FM271300 19012G18KT P6SM BKN050
     FM271800 19016G21KT P6SM BKN040
     FM280100 20011KT 6SM BR SCT010 BKN040
     FM280700 19007KT 5SM BR BKN008=



000
FTUS41 KOKX 271122
TAFSWF
TAF
KSWF 271122Z 2712/2818 VRB05KT P6SM SCT035 BKN100
     FM271500 21010KT P6SM BKN040
     FM272100 20014KT P6SM VCTS BKN040CB
     FM280100 20008KT 6SM BR SCT008 BKN200
     FM280700 23005KT 5SM BR SCT008 BKN200
     FM281400 25011KT P6SM BKN200
      AMD NOT SKED=



000
FTUS41 KOKX 271122
TAFBDR
TAF
KBDR 271122Z 2712/2812 21007KT P6SM FEW012 SCT050 BKN200
     FM271300 21010KT P6SM BKN050
     FM271800 19012G17KT P6SM BKN040
     FM280100 20008KT P6SM SCT010 BKN040
     FM280700 20005KT 5SM BR BKN010=



000
FTUS41 KOKX 271023 AAC
TAFGON
TAF AMD
KGON 271023Z 2710/2806 VRB06KT 6SM BR FEW010 SCT035 BKN200
      TEMPO 2710/2713 BKN012
     FM271600 18010KT P6SM SCT020 BKN035
     FM272000 21008KT 6SM HZ SCT040 BKN120
     FM280100 21006KT 3SM BR BKN010=



000
FTUS41 KOKX 271023 AAC
TAFGON
TAF AMD
KGON 271023Z 2710/2806 VRB06KT 6SM BR FEW010 SCT035 BKN200
      TEMPO 2710/2713 BKN012
     FM271600 18010KT P6SM SCT020 BKN035
     FM272000 21008KT 6SM HZ SCT040 BKN120
     FM280100 21006KT 3SM BR BKN010=



000
FTUS41 KOKX 271022 AAB
TAFISP
TAF AMD
KISP 271022Z 2710/2806 21011KT P6SM SCT012 SCT050 BKN200
      TEMPO 2710/2713 BKN007
     FM271300 19012G18KT P6SM BKN050
     FM271800 19016G21KT P6SM BKN040
     FM280100 20011KT 6SM BR SCT010 BKN040=



000
FTUS41 KOKX 271022 AAB
TAFISP
TAF AMD
KISP 271022Z 2710/2806 21011KT P6SM SCT012 SCT050 BKN200
      TEMPO 2710/2713 BKN007
     FM271300 19012G18KT P6SM BKN050
     FM271800 19016G21KT P6SM BKN040
     FM280100 20011KT 6SM BR SCT010 BKN040=



000
FTUS41 KOKX 270835 AAA
TAFJFK
TAF AMD
KJFK 270835Z 2709/2812 18009KT P6SM FEW012 SCT050 BKN200
     FM271300 18012G18KT P6SM BKN050
     FM271800 18020G25KT P6SM BKN040
     FM280100 19015KT P6SM SCT010 BKN040
     FM280700 19009KT 5SM BR BKN010=



000
FTUS41 KOKX 270835 AAA
TAFLGA
TAF AMD
KLGA 270835Z 2709/2806 18009KT P6SM FEW012 SCT050 BKN200
     FM271400 18011G16KT P6SM BKN050
     FM271800 18018G23KT P6SM BKN040
     FM280100 19012KT P6SM SCT010 BKN040=



000
FTUS41 KOKX 270835 AAA
TAFTEB
TAF AMD
KTEB 270835Z 2709/2806 20008KT P6SM FEW012 SCT050 BKN200
     FM271400 20010KT P6SM BKN050
     FM271800 20012G18KT P6SM BKN040
     FM280100 21009KT P6SM SCT010 BKN040=



000
FTUS41 KOKX 270835 AAA
TAFBDR
TAF AMD
KBDR 270835Z 2709/2806 21007KT P6SM FEW012 SCT050 BKN200
     FM271300 21010KT P6SM BKN050
     FM271800 19012G17KT P6SM BKN040
     FM280100 20008KT P6SM SCT010 BKN040=



000
FTUS41 KOKX 270835 AAA
TAFSWF
TAF AMD
KSWF 270835Z 2709/2812 VRB05KT P6SM SCT035 BKN100
     FM271500 21010KT P6SM BKN040
     FM272100 20014KT P6SM VCTS BKN040CB
     FM280100 20008KT 6SM BR SCT008 BKN200
     FM280700 23005KT 5SM BR SCT008 BKN200
      AMD NOT SKED=



000
FTUS41 KOKX 270835 AAB
TAFGON
TAF AMD
KGON 270835Z 2709/2806 VRB06KT 6SM BR FEW010 SCT035 BKN200
     FM271600 18010KT P6SM SCT020 BKN035
     FM272000 21008KT 6SM HZ SCT040 BKN120
     FM280100 21006KT 3SM BR BKN010=



000
FTUS41 KOKX 270835 AAA
TAFISP
TAF AMD
KISP 270835Z 2709/2806 21011KT P6SM FEW012 SCT050 BKN200
     FM271300 19012G18KT P6SM BKN050
     FM271800 19016G21KT P6SM BKN040
     FM280100 20011KT 6SM BR SCT010 BKN040=



000
FTUS41 KOKX 270835 AAA
TAFEWR
TAF AMD
KEWR 270835Z 2709/2812 20009KT P6SM FEW012 SCT050 BKN200
     FM271400 21010G16KT P6SM BKN050
     FM271800 20012G18KT P6SM BKN040
     FM280100 21010KT P6SM SCT010 BKN040
     FM280700 21006KT 5SM BR BKN010=



000
FTUS41 KOKX 270544 AAA
TAFGON
TAF AMD
KGON 270544Z 2706/2806 VRB03KT P6SM BKN250
     FM270800 VRB03KT 6SM BR SCT012
     FM271000 20005KT 4SM BR BKN010
     FM271600 18010KT P6SM SCT020 BKN035
     FM272000 21008KT 6SM HZ SCT040 BKN120
     FM280100 21006KT 3SM BR BKN010=



000
FTUS41 KOKX 270539
TAFJFK
TAF
KJFK 270539Z 2706/2812 19011KT P6SM SCT012 BKN200
      TEMPO 2710/2712 3SM BR BKN012
     FM271300 18012G18KT P6SM BKN050
     FM271800 18020G25KT P6SM BKN040
     FM280100 19015KT P6SM SCT010 BKN040
     FM280700 19009KT 5SM BR BKN010=



000
FTUS41 KOKX 270539
TAFISP
TAF
KISP 270539Z 2706/2806 21011KT P6SM SCT012 BKN200
      TEMPO 2710/2712 4SM BR BKN012
     FM271300 19012G18KT P6SM BKN050
     FM271800 19016G21KT P6SM BKN040
     FM280100 20011KT 6SM BR SCT010 BKN040=



000
FTUS41 KOKX 270539
TAFGON
TAF
KGON 270539Z 2706/2806 19006KT P6SM BKN250
     FM270800 21004KT 6SM BR SCT012
     FM271000 20005KT 4SM BR BKN010
     FM271600 18010KT P6SM SCT020 BKN035
     FM272000 21008KT P6SM SCT040 BKN120=



000
FTUS41 KOKX 270539
TAFTEB
TAF
KTEB 270539Z 2706/2806 20008KT P6SM FEW012 SCT050 BKN200
     FM271400 20010KT P6SM BKN050
     FM271800 20012G18KT P6SM BKN040
     FM280100 21009KT P6SM SCT010 BKN040=



000
FTUS41 KOKX 270539
TAFBDR
TAF
KBDR 270539Z 2706/2806 21007KT P6SM SCT012 BKN200
     FM271300 21010KT P6SM BKN050
     FM271800 19012G17KT P6SM BKN040
     FM280100 20008KT P6SM SCT010 BKN040=



000
FTUS41 KOKX 270539
TAFLGA
TAF
KLGA 270539Z 2706/2806 20010KT P6SM SCT012 BKN200
     FM271400 18011G16KT P6SM BKN050
     FM271800 18018G23KT P6SM BKN040
     FM280100 19012KT P6SM SCT010 BKN040=



000
FTUS41 KOKX 270539
TAFEWR
TAF
KEWR 270539Z 2706/2812 20009KT P6SM FEW012 SCT050 BKN200
     FM271400 21010G16KT P6SM BKN050
     FM271800 20012G18KT P6SM BKN040
     FM280100 21010KT P6SM SCT010 BKN040
     FM280700 21006KT 5SM BR BKN010=



000
FTUS41 KOKX 270539
TAFSWF
TAF
KSWF 270539Z 2706/2812 VRB05KT P6SM SCT035 BKN100
     FM271500 21010KT P6SM BKN040
     FM272200 20014KT P6SM VCTS BKN040CB
     FM280100 20008KT 6SM BR SCT008 BKN200
     FM280700 23005KT 5SM BR SCT008 BKN200
      AMD NOT SKED=



000
FTUS41 KOKX 270300 AAB
TAFLGA
TAF AMD
KLGA 270300Z 2703/2724 21009KT P6SM BKN250
     FM271000 20008KT P6SM SCT015
      TEMPO 2710/2712 BKN015
     FM271400 20010KT P6SM SCT035
     FM271600 17014KT P6SM SCT040 BKN200
     FM271800 18016KT P6SM BKN200=



000
FTUS41 KOKX 270259 AAB
TAFJFK
TAF AMD
KJFK 270259Z 2703/2806 20011KT P6SM BKN250
     FM270900 20008KT P6SM SCT012
      TEMPO 2710/2712 3SM BR BKN012
     FM271300 18012KT P6SM BKN035
     FM271500 18016KT P6SM SCT040 BKN200
     FM272000 18018G25KT P6SM BKN200
     FM280200 19014KT P6SM BKN200=



000
FTUS41 KOKX 270231 AAA
TAFJFK
TAF AMD
KJFK 270231Z 2703/2806 18016G22KT P6SM SCT150 BKN250
     FM270400 20012KT P6SM BKN250
     FM270900 20008KT P6SM SCT012
      TEMPO 2710/2712 3SM BR BKN012
     FM271300 18012KT P6SM BKN035
     FM271500 18016KT P6SM SCT040 BKN200
     FM272000 18018G25KT P6SM BKN200
     FM280200 19014KT P6SM BKN200=



000
FTUS41 KOKX 270231 AAA
TAFEWR
TAF AMD
KEWR 270231Z 2703/2806 20011KT P6SM BKN250
     FM270400 22008KT P6SM BKN250
      TEMPO 2709/2712 SCT015
     FM271600 21012KT P6SM SCT040 BKN200
     FM271800 21015G21KT P6SM SCT040 BKN200
     FM280100 22013KT P6SM SCT040 BKN200
     FM280300 33007KT P6SM BKN200=



000
FTUS41 KOKX 270231 AAA
TAFLGA
TAF AMD
KLGA 270231Z 2703/2724 19009KT P6SM BKN250
     FM271000 20008KT P6SM SCT015
      TEMPO 2710/2712 BKN015
     FM271400 20010KT P6SM SCT035
     FM271600 17014KT P6SM SCT040 BKN200
     FM271800 18016KT P6SM BKN200=



000
FTUS41 KOKX 270231 AAA
TAFTEB
TAF AMD
KTEB 270231Z 2703/2724 20008KT P6SM BKN250
      TEMPO 2709/2712 SCT015
     FM271600 19011KT P6SM SCT040 BKN200
     FM271800 19013G19KT P6SM SCT040 BKN200=



000
FTUS41 KOKX 270231 AAA
TAFGON
TAF AMD
KGON 270231Z 2703/2724 19006KT P6SM BKN250
     FM270800 21004KT 6SM BR SCT012
     FM271000 20005KT 4SM BR BKN010
     FM271600 18010KT P6SM SCT020 BKN035
     FM272000 21008KT P6SM SCT040 BKN120=



000
FTUS41 KOKX 270231 AAA
TAFISP
TAF AMD
KISP 270231Z 2703/2724 21014G22KT P6SM FEW150 BKN250
     FM270400 21012KT P6SM BKN250
     FM270900 21008KT P6SM SCT012
      TEMPO 2710/2712 3SM BR BKN012
     FM271400 18012KT P6SM BKN035
     FM271700 18016G21KT P6SM SCT040 BKN200=



000
FTUS41 KOKX 270231 AAA
TAFBDR
TAF AMD
KBDR 270231Z 2703/2724 22007KT P6SM BKN250
     FM270900 22005KT P6SM SCT025 BKN250
      TEMPO 2709/2712 SCT025
     FM271400 21010KT P6SM FEW035
     FM271900 18013KT P6SM SCT040 BKN200=



000
FTUS41 KOKX 270231 AAA
TAFGON
TAF AMD
KGON 270231Z 2703/2724 19006KT P6SM BKN250
     FM270800 21004KT 6SM BR SCT012
     FM271000 20005KT 4SM BR BKN010
     FM271600 18010KT P6SM SCT020 BKN035
     FM272000 21008KT P6SM SCT040 BKN120=



000
FTUS41 KOKX 270231 AAA
TAFBDR
TAF AMD
KBDR 270231Z 2703/2724 22007KT P6SM BKN250
     FM270900 22005KT P6SM SCT025 BKN250
      TEMPO 2709/2712 SCT025
     FM271400 21010KT P6SM FEW035
     FM271900 18013KT P6SM SCT040 BKN200=



000
FTUS41 KOKX 270231 AAA
TAFISP
TAF AMD
KISP 270231Z 2703/2724 21014G22KT P6SM FEW150 BKN250
     FM270400 21012KT P6SM BKN250
     FM270900 21008KT P6SM SCT012
      TEMPO 2710/2712 3SM BR BKN012
     FM271400 18012KT P6SM BKN035
     FM271700 18016G21KT P6SM SCT040 BKN200=



000
FTUS41 KOKX 262339
TAFGON
TAF
KGON 262339Z 2700/2724 21009KT P6SM BKN250
     FM270800 21004KT 6SM BR SCT012
     FM271000 20005KT 4SM BR BKN010
     FM271600 18010KT P6SM SCT020 BKN035
     FM272000 21008KT P6SM SCT040 BKN120=



000
FTUS41 KOKX 262336
TAFJFK
TAF
KJFK 262336Z 2700/2806 18020G26KT P6SM FEW050 SCT150 BKN250
     FM270400 20012KT P6SM BKN150
     FM270900 20008KT P6SM SCT012
      TEMPO 2710/2712 3SM BR BKN012
     FM271300 18012KT P6SM BKN035
     FM271500 18016KT P6SM SCT040 BKN200
     FM272000 18018G25KT P6SM BKN200
     FM280200 19014KT P6SM BKN200=



000
FTUS41 KOKX 262336
TAFEWR
TAF
KEWR 262336Z 2700/2806 21011KT P6SM FEW060 SCT120 BKN250
     FM270100 21010KT P6SM BKN250
     FM270400 22008KT P6SM BKN250
      TEMPO 2709/2712 SCT015
     FM271600 21012KT P6SM SCT040 BKN200
     FM271800 21015G21KT P6SM SCT040 BKN200
     FM280100 22013KT P6SM SCT040 BKN200
     FM280300 33007KT P6SM BKN200=



000
FTUS41 KOKX 262336
TAFLGA
TAF
KLGA 262336Z 2700/2724 18016KT P6SM FEW050 SCT150 BKN250
     FM270200 19010KT P6SM BKN250
     FM271000 21008KT P6SM SCT015
      TEMPO 2710/2712 BKN015
     FM271400 20010KT P6SM SCT035
     FM271600 17014KT P6SM SCT040 BKN200
     FM271800 18016KT P6SM BKN200=



000
FTUS41 KOKX 262336
TAFTEB
TAF
KTEB 262336Z 2700/2724 19010KT P6SM FEW060 SCT120 BKN250
     FM270100 21008KT P6SM BKN250
      TEMPO 2709/2712 SCT015
     FM271600 19011KT P6SM SCT040 BKN200
     FM271800 19013G19KT P6SM SCT040 BKN200=



000
FTUS41 KOKX 262336
TAFISP
TAF
KISP 262336Z 2700/2724 21014G22KT P6SM FEW150 BKN250
     FM270400 21012KT P6SM BKN150
     FM270900 21008KT P6SM SCT012
      TEMPO 2710/2712 3SM BR BKN012
     FM271400 18012KT P6SM BKN035
     FM271700 18016G21KT P6SM SCT040 BKN200=



000
FTUS41 KOKX 262336
TAFSWF
TAF
KSWF 262336Z 2700/2806 22005KT P6SM SCT050 BKN100
     FM270300 25005KT P6SM BKN150
     FM271500 21013KT P6SM FEW050 BKN120
     FM280100 24005KT P6SM SCT040 BKN100
      AMD NOT SKED=



000
FTUS41 KOKX 262336
TAFBDR
TAF
KBDR 262336Z 2700/2724 22007KT P6SM BKN250
     FM270900 22005KT P6SM SCT025 BKN250
      TEMPO 2709/2712 SCT025
     FM271400 21010KT P6SM FEW035
     FM271900 18013KT P6SM SCT040 BKN200=



000
FTUS41 KOKX 262209 AAB
TAFGON
TAF AMD
KGON 262209Z 2622/2718 21009KT P6SM BKN250
     FM270800 20005KT 4SM BR OVC015
     FM270900 20005KT 1SM BR BKN008
     FM271600 21007KT 3SM HZ SCT008 BKN015=



000
FTUS41 KOKX 262208 AAB
TAFBDR
TAF AMD
KBDR 262208Z 2622/2718 21012G17KT P6SM BKN250
     FM270000 21009KT P6SM BKN250
     FM270800 20005KT 4SM BR SCT020 BKN050
     FM271000 21006KT 2SM BR SCT007 BKN020
     FM271300 20008KT 3SM HZ BKN025
     FM271500 21010KT 4SM HZ SCT025 BKN040=



000
FTUS41 KOKX 262207 AAB
TAFISP
TAF AMD
KISP 262207Z 2622/2718 22015G22KT P6SM BKN250
     FM270300 22011G17KT P6SM BKN250
     FM270500 20010KT P6SM BKN250
     FM270700 18010KT 3SM BR FEW008 BKN040
     FM270900 19010KT 2SM BR BKN008
     FM271400 20012KT 3SM BR SCT008 BKN015
     FM271600 19013KT 5SM BR SCT015 BKN025=



000
FTUS41 KOKX 262201 AAB
TAFTEB
TAF AMD
KTEB 262201Z 2622/2718 17011KT P6SM FEW060 BKN250
     FM270100 20010KT P6SM FEW060 BKN250
     FM270500 20005KT P6SM SCT050 BKN250
     FM270800 19004KT 5SM BR SCT020 BKN050
      TEMPO 2709/2713 3SM BR BKN020
     FM271400 20009KT P6SM FEW020 BKN050=



000
FTUS41 KOKX 262200 AAB
TAFEWR
TAF AMD
KEWR 262200Z 2622/2724 21011G19KT P6SM FEW060 SCT120 BKN250
     FM270100 21010KT P6SM SCT050 BKN250
     FM270700 21008KT 5SM BR SCT015 BKN050
     FM270900 21007KT 3SM BR FEW010 BKN020
     FM271100 21008KT 3SM BR BKN010 BKN020
     FM271300 20010KT 4SM BR BKN015 BKN025
     FM271500 21012KT P6SM FEW015 SCT025 BKN040=



000
FTUS41 KOKX 262200 AAB
TAFEWR
TAF AMD
KEWR 262200Z 2622/2724 21011G19KT P6SM FEW060 SCT120 BKN250
     FM270100 21010KT P6SM SCT050 BKN250
     FM270700 21008KT 5SM BR SCT015 BKN050
     FM270900 21007KT 3SM BR FEW010 BKN020
     FM271100 21008KT 3SM BR BKN010 BKN020
     FM271300 20010KT 4SM BR BKN015 BKN025
     FM271500 21012KT P6SM FEW015 SCT025 BKN040=



000
FTUS41 KOKX 262159 AAB
TAFLGA
TAF AMD
KLGA 262159Z 2622/2718 18016KT P6SM FEW050 SCT150 BKN250
     FM270400 20012KT P6SM SCT050 SCT150 BKN250
     FM270700 20010KT 4SM BR SCT010 BKN050
     FM270900 20008KT 3SM BR BKN010
     FM271300 20011KT 4SM BR BKN015
     FM271700 20012KT 5SM BR SCT015 BKN035=



000
FTUS41 KOKX 261951 AAA
TAFJFK
TAF AMD
KJFK 261951Z 2620/2724 18020G26KT P6SM FEW050 SCT150 BKN250
     FM270400 20012KT P6SM SCT050 BKN250
     FM270700 20010KT 4SM BR BKN050
     FM270900 20008KT 2SM BR BKN008
     FM271400 18012KT 3SM BR BKN015
     FM271700 17015KT 6SM BR SCT015 BKN035=



000
FTUS41 KOKX 261951 AAA
TAFLGA
TAF AMD
KLGA 261951Z 2620/2718 19016G22KT P6SM FEW050 SCT150 BKN250
     FM270400 20012KT P6SM SCT050 SCT150 BKN250
     FM270700 20010KT 4SM BR SCT010 BKN050
     FM270900 20008KT 3SM BR BKN010
     FM271300 20011KT 4SM BR BKN015
     FM271700 20012KT 5SM BR SCT015 BKN035=



000
FTUS41 KOKX 261951 AAA
TAFJFK
TAF AMD
KJFK 261951Z 2620/2724 18020G26KT P6SM FEW050 SCT150 BKN250
     FM270400 20012KT P6SM SCT050 BKN250
     FM270700 20010KT 4SM BR BKN050
     FM270900 20008KT 2SM BR BKN008
     FM271400 18012KT 3SM BR BKN015
     FM271700 17015KT 6SM BR SCT015 BKN035=



000
FTUS41 KOKX 261951 AAA
TAFLGA
TAF AMD
KLGA 261951Z 2620/2718 19016G22KT P6SM FEW050 SCT150 BKN250
     FM270400 20012KT P6SM SCT050 SCT150 BKN250
     FM270700 20010KT 4SM BR SCT010 BKN050
     FM270900 20008KT 3SM BR BKN010
     FM271300 20011KT 4SM BR BKN015
     FM271700 20012KT 5SM BR SCT015 BKN035=



000
FTUS41 KOKX 261951 AAA
TAFGON
TAF AMD
KGON 261951Z 2620/2718 19010G18KT P6SM SCT100 BKN250
     FM262300 22009KT P6SM BKN250
     FM270600 21006KT P6SM OVC100
     FM270800 20005KT 4SM BR OVC015
     FM270900 20005KT 1SM BR BKN008
     FM271600 21007KT 3SM HZ SCT008 BKN015=



000
FTUS41 KOKX 261951 AAA
TAFTEB
TAF AMD
KTEB 261951Z 2620/2718 19013G20KT P6SM FEW060 BKN250
     FM270100 21010KT P6SM FEW050 BKN250
     FM270500 20005KT P6SM SCT050 BKN250
     FM270800 19004KT 5SM BR SCT020 BKN050
      TEMPO 2709/2713 3SM BR BKN020
     FM271400 20009KT P6SM FEW020 BKN050=



000
FTUS41 KOKX 261951 AAA
TAFISP
TAF AMD
KISP 261951Z 2620/2718 19015G22KT P6SM BKN250
     FM270500 20010KT P6SM BKN050 BKN250
     FM270700 18010KT 3SM BR FEW008 BKN040
     FM270900 19010KT 2SM BR BKN008
     FM271400 20012KT 3SM BR SCT008 BKN015
     FM271600 19013KT 5SM BR SCT015 BKN025=



000
FTUS41 KOKX 261951 AAA
TAFBDR
TAF AMD
KBDR 261951Z 2620/2718 19014G20KT P6SM FEW050 BKN250
     FM270200 21009KT P6SM SCT050 BKN250
     FM270800 20005KT 4SM BR SCT020 BKN050
     FM271000 21006KT 2SM BR SCT007 BKN020
     FM271300 20008KT 3SM HZ BKN025
     FM271500 21010KT 4SM HZ SCT025 BKN040=



000
FTUS41 KOKX 261951 AAA
TAFEWR
TAF AMD
KEWR 261951Z 2620/2724 21014G22KT P6SM FEW050 SCT150 BKN250
     FM270200 21010KT P6SM SCT050 BKN250
     FM270700 21008KT 5SM BR SCT015 BKN050
     FM270900 21007KT 3SM BR FEW010 BKN020
     FM271100 21008KT 3SM BR BKN010 BKN020
     FM271300 20010KT 4SM BR BKN015 BKN025
     FM271500 21012KT P6SM FEW015 SCT025 BKN040=



000
FTUS41 KOKX 261951 AAB
TAFSWF
TAF AMD
KSWF 261951Z 2620/2724 23012G19KT P6SM VCSH BKN050 BKN100 BKN250
     FM270000 23008KT P6SM FEW050 BKN100 BKN250
     FM270600 VRB05KT P6SM SCT050 OVC100
     FM270900 19005KT 4SM BR OVC050
     FM271200 18005KT 3SM BR BKN015
     FM271400 23008KT 5SM BR OVC030
     FM271600 21010KT P6SM SCT030 BKN050 PROB30 2720/2724 4SM -TSRA
      BKN040CB
      AMD NOT SKED=



000
FTUS41 KOKX 261905 AAA
TAFSWF
TAF AMD
KSWF 261905Z 2619/2724 24010KT P6SM VCTS BKN050CB BKN100
     FM262000 23012G19KT P6SM VCSH BKN050 BKN100 BKN250
     FM270000 23008KT P6SM BKN100 BKN250
     FM270600 VRB05KT P6SM OVC100
     FM270900 19005KT 4SM BR OVC050
     FM271200 18005KT 3SM BR BKN015
     FM271400 23008KT 5SM BR OVC030
     FM271600 21010KT P6SM SCT030 BKN050 PROB30 2720/2724 4SM -TSRA
      BKN040CB
      AMD NOT SKED=



000
FTUS41 KOKX 261905 AAA
TAFSWF
TAF AMD
KSWF 261905Z 2619/2724 24010KT P6SM VCTS BKN050CB BKN100
     FM262000 23012G19KT P6SM VCSH BKN050 BKN100 BKN250
     FM270000 23008KT P6SM BKN100 BKN250
     FM270600 VRB05KT P6SM OVC100
     FM270900 19005KT 4SM BR OVC050
     FM271200 18005KT 3SM BR BKN015
     FM271400 23008KT 5SM BR OVC030
     FM271600 21010KT P6SM SCT030 BKN050 PROB30 2720/2724 4SM -TSRA
      BKN040CB
      AMD NOT SKED=



000
FTUS41 KOKX 261739
TAFBDR
TAF
KBDR 261739Z 2618/2718 20011KT P6SM SCT250
     FM261900 19014G20KT P6SM SCT250
     FM270300 21008KT P6SM BKN250
     FM270800 20005KT 4SM BR SCT020 BKN050
     FM271000 21006KT 2SM BR SCT007 BKN020
     FM271300 20008KT 3SM HZ BKN025
     FM271500 21010KT 4SM HZ SCT025 BKN040=



000
FTUS41 KOKX 261739
TAFISP
TAF
KISP 261739Z 2618/2718 18012G18KT P6SM FEW250
     FM261900 19015G22KT P6SM SCT250
     FM270500 20010KT P6SM BKN050 BKN250
     FM270700 18010KT 3SM BR FEW008 BKN040
     FM270900 19010KT 2SM BR BKN008
     FM271400 20012KT 3SM BR SCT008 BKN015
     FM271600 19013KT 5SM BR SCT015 BKN025=



000
FTUS41 KOKX 261739
TAFLGA
TAF
KLGA 261739Z 2618/2718 19016G22KT P6SM FEW050 FEW150 SCT250
     FM270400 20012KT P6SM SCT050 SCT150 BKN250
     FM270700 20010KT 4SM BR SCT010 BKN050
     FM270900 20008KT 3SM BR BKN010
     FM271300 20011KT 4SM BR BKN015
     FM271700 20012KT 5SM BR SCT015 BKN035=



000
FTUS41 KOKX 261739
TAFEWR
TAF
KEWR 261739Z 2618/2724 20013G22KT P6SM FEW150 SCT250
     FM262000 21014G23KT P6SM FEW050 SCT150 SCT250
     FM270200 21010KT P6SM SCT050 BKN250
     FM270700 21008KT 5SM BR SCT015 BKN050
     FM270900 21007KT 3SM BR FEW010 BKN020
     FM271100 21008KT 3SM BR BKN010 BKN020
     FM271300 20010KT 4SM BR BKN015 BKN025
     FM271500 21012KT P6SM FEW015 SCT025 BKN040=



000
FTUS41 KOKX 261739
TAFJFK
TAF
KJFK 261739Z 2618/2724 19015KT P6SM FEW150 SCT250
     FM262000 18020G26KT P6SM FEW050 SCT150 SCT250
     FM270400 20012KT P6SM SCT050 BKN250
     FM270700 20010KT 4SM BR BKN050
     FM270900 20008KT 2SM BR BKN008
     FM271400 18012KT 3SM BR BKN015
     FM271700 17015KT 6SM BR SCT015 BKN035=



000
FTUS41 KOKX 261739
TAFGON
TAF
KGON 261739Z 2618/2718 19010G18KT P6SM SCT250
     FM262300 22007KT P6SM BKN250
     FM270600 21006KT P6SM OVC100
     FM270800 20005KT 4SM BR OVC015
     FM270900 20005KT 1SM BR BKN008
     FM271600 21007KT 3SM HZ SCT008 BKN015=



000
FTUS41 KOKX 261739
TAFTEB
TAF
KTEB 261739Z 2618/2718 19013G20KT P6SM FEW060 SCT250
     FM270100 21010KT P6SM FEW050 BKN250
     FM270500 20005KT P6SM SCT050 BKN250
     FM270800 19004KT 5SM BR SCT020 BKN050
      TEMPO 2709/2713 3SM BR BKN020
     FM271400 20009KT P6SM FEW020 BKN050=



000
FTUS41 KOKX 261739
TAFSWF
TAF
KSWF 261739Z 2618/2724 24009KT P6SM BKN100
     FM262000 23012G20KT P6SM VCSH BKN060 BKN100 BKN250
     FM270000 23008KT P6SM BKN100 BKN250
     FM270600 VRB05KT P6SM OVC100
     FM270900 19005KT 4SM BR OVC050
     FM271200 18005KT 3SM BR BKN015
     FM271400 23008KT 5SM BR OVC030
     FM271600 21010KT P6SM SCT030 BKN050 PROB30 2720/2724 4SM -TSRA
      BKN040CB
      AMD NOT SKED=



000
FTUS41 KOKX 261446 AAA
TAFJFK
TAF AMD
KJFK 261446Z 2615/2718 20012KT P6SM FEW250
     FM261700 19015KT P6SM SCT250
     FM262000 18020G26KT P6SM SCT250
     FM270300 20012KT P6SM BKN250
     FM270700 20010KT 4SM BR BKN050
      TEMPO 2708/2712 1SM BR BKN010
     FM271300 18010KT 3SM BR BKN015=



000
FTUS41 KOKX 261446 AAA
TAFEWR
TAF AMD
KEWR 261446Z 2615/2718 22010G16KT P6SM FEW250
     FM261800 20013G22KT P6SM SCT250
     FM262000 21014G23KT P6SM SCT250
     FM270000 21010KT P6SM BKN250
     FM270700 21008KT 5SM BR BKN050
      TEMPO 2709/2712 1SM BR BKN010
     FM271300 18010KT 3SM BR BKN015=



000
FTUS41 KOKX 261446 AAA
TAFTEB
TAF AMD
KTEB 261446Z 2615/2712 21011KT P6SM SCT250
     FM261800 19013G20KT P6SM SCT250
     FM270000 21010KT P6SM BKN250
     FM270500 20005KT P6SM BKN250
     FM270800 19004KT 5SM BR BKN050=



000
FTUS41 KOKX 261446 AAA
TAFGON
TAF AMD
KGON 261446Z 2615/2712 19011KT P6SM SCT250
     FM261800 19010G18KT P6SM SCT250
     FM262300 22007KT P6SM BKN250
     FM270600 21006KT P6SM OVC100
     FM270800 20005KT 4SM BR OVC015
      TEMPO 2708/2712 1SM BR BKN008=



000
FTUS41 KOKX 261446 AAA
TAFISP
TAF AMD
KISP 261446Z 2615/2712 22012G16KT P6SM FEW250
     FM261700 18014G20KT P6SM SCT250
     FM261900 19015G22KT P6SM SCT250
     FM270400 20010KT P6SM BKN250
     FM270700 18005KT 4SM BR BKN050
      TEMPO 2708/2712 1SM BR BKN010=



000
FTUS41 KOKX 261446 AAA
TAFSWF
TAF AMD
KSWF 261446Z 2615/2718 25010KT P6SM SCT060 SCT250
     FM261800 23012G20KT P6SM VCSH BKN060 BKN250
     FM270000 23010KT P6SM FEW060 SCT250
     FM270200 26005KT P6SM BKN250
     FM270600 20005KT 6SM -SHRA BR OVC100
     FM270900 19005KT 4SM BR OVC050
     FM271200 18005KT 3SM BR BKN015
     FM271600 23008KT 5SM BR OVC030
      AMD NOT SKED=



000
FTUS41 KOKX 261446 AAA
TAFBDR
TAF AMD
KBDR 261446Z 2615/2712 20011KT P6SM SCT250
     FM261900 19014G20KT P6SM SCT250
     FM270300 21008KT P6SM BKN250
     FM270800 19005KT 4SM BR BKN050=



000
FTUS41 KOKX 261446 AAA
TAFLGA
TAF AMD
KLGA 261446Z 2615/2712 22012G17KT P6SM FEW250
     FM261800 19016G22KT P6SM SCT250
     FM270300 20012KT P6SM BKN250
     FM270700 20010KT 4SM BR BKN050=



000
FTUS41 KOKX 261446 AAA
TAFSWF
TAF AMD
KSWF 261446Z 2615/2718 25010KT P6SM SCT060 SCT250
     FM261800 23012G20KT P6SM VCSH BKN060 BKN250
     FM270000 23010KT P6SM FEW060 SCT250
     FM270200 26005KT P6SM BKN250
     FM270600 20005KT 6SM -SHRA BR OVC100
     FM270900 19005KT 4SM BR OVC050
     FM271200 18005KT 3SM BR BKN015
     FM271600 23008KT 5SM BR OVC030
      AMD NOT SKED=



000
FTUS41 KOKX 261446 AAA
TAFJFK
TAF AMD
KJFK 261446Z 2615/2718 20012KT P6SM FEW250
     FM261700 19015KT P6SM SCT250
     FM262000 18020G26KT P6SM SCT250
     FM270300 20012KT P6SM BKN250
     FM270700 20010KT 4SM BR BKN050
      TEMPO 2708/2712 1SM BR BKN010
     FM271300 18010KT 3SM BR BKN015=



000
FTUS41 KOKX 261446 AAA
TAFISP
TAF AMD
KISP 261446Z 2615/2712 22012G16KT P6SM FEW250
     FM261700 18014G20KT P6SM SCT250
     FM261900 19015G22KT P6SM SCT250
     FM270400 20010KT P6SM BKN250
     FM270700 18005KT 4SM BR BKN050
      TEMPO 2708/2712 1SM BR BKN010=



000
FTUS41 KOKX 261446 AAA
TAFEWR
TAF AMD
KEWR 261446Z 2615/2718 22010G16KT P6SM FEW250
     FM261800 20013G22KT P6SM SCT250
     FM262000 21014G23KT P6SM SCT250
     FM270000 21010KT P6SM BKN250
     FM270700 21008KT 5SM BR BKN050
      TEMPO 2709/2712 1SM BR BKN010
     FM271300 18010KT 3SM BR BKN015=



000
FTUS41 KOKX 261446 AAA
TAFBDR
TAF AMD
KBDR 261446Z 2615/2712 20011KT P6SM SCT250
     FM261900 19014G20KT P6SM SCT250
     FM270300 21008KT P6SM BKN250
     FM270800 19005KT 4SM BR BKN050=



000
FTUS41 KOKX 261446 AAA
TAFGON
TAF AMD
KGON 261446Z 2615/2712 19011KT P6SM SCT250
     FM261800 19010G18KT P6SM SCT250
     FM262300 22007KT P6SM BKN250
     FM270600 21006KT P6SM OVC100
     FM270800 20005KT 4SM BR OVC015
      TEMPO 2708/2712 1SM BR BKN008=



000
FTUS41 KOKX 261446 AAA
TAFTEB
TAF AMD
KTEB 261446Z 2615/2712 21011KT P6SM SCT250
     FM261800 19013G20KT P6SM SCT250
     FM270000 21010KT P6SM BKN250
     FM270500 20005KT P6SM BKN250
     FM270800 19004KT 5SM BR BKN050=



000
FTUS41 KOKX 261446 AAA
TAFLGA
TAF AMD
KLGA 261446Z 2615/2712 22012G17KT P6SM FEW250
     FM261800 19016G22KT P6SM SCT250
     FM270300 20012KT P6SM BKN250
     FM270700 20010KT 4SM BR BKN050=



000
FTUS41 KOKX 261133
TAFJFK
TAF
KJFK 261133Z 2612/2718 20010KT P6SM FEW250
     FM261600 19014KT P6SM SCT250
     FM262000 18020G26KT P6SM SCT250
     FM270300 20012KT P6SM BKN250
     FM270700 20010KT 4SM BR BKN050
      TEMPO 2708/2712 1SM BR BKN010
     FM271300 18010KT 3SM BR BKN015=



000
FTUS41 KOKX 261133
TAFSWF
TAF
KSWF 261133Z 2612/2718 26008KT P6SM FEW250
     FM261500 23010KT P6SM SCT250
     FM261800 23012G20KT P6SM SCT250 PROB30 2621/2624 TSRA BKN050CB
     FM270000 23010KT P6SM SCT250
     FM270200 26005KT P6SM BKN250
     FM270600 20005KT 6SM -SHRA BR OVC100
     FM270900 19005KT 4SM BR OVC050
     FM271200 18005KT 3SM BR BKN015
     FM271600 23008KT 5SM BR OVC030
      AMD NOT SKED=



000
FTUS41 KOKX 261133
TAFISP
TAF
KISP 261133Z 2612/2712 22013G18KT P6SM FEW250
     FM261600 18014G20KT P6SM SCT250
     FM261900 19015G22KT P6SM SCT250
     FM270400 20010KT P6SM BKN250
     FM270700 18005KT 4SM BR BKN050
      TEMPO 2708/2712 1SM BR BKN010=



000
FTUS41 KOKX 261133
TAFEWR
TAF
KEWR 261133Z 2612/2718 21010KT P6SM FEW250
     FM261600 20013G22KT P6SM SCT250
     FM262000 21014G23KT P6SM SCT250
     FM270000 21010KT P6SM BKN250
     FM270700 21008KT 5SM BR BKN050
      TEMPO 2709/2712 1SM BR BKN010
     FM271300 18010KT 3SM BR BKN015=



000
FTUS41 KOKX 261133
TAFBDR
TAF
KBDR 261133Z 2612/2712 22008KT P6SM FEW250
     FM261600 20010KT P6SM SCT250
     FM262100 19014G20KT P6SM SCT250
     FM270300 21008KT P6SM BKN250
     FM270800 19005KT 4SM BR BKN050=



000
FTUS41 KOKX 261133
TAFTEB
TAF
KTEB 261133Z 2612/2712 21008KT P6SM FEW250
     FM261600 21011KT P6SM SCT250
     FM261900 19013G20KT P6SM SCT250
     FM270000 21010KT P6SM BKN250
     FM270500 20005KT P6SM BKN250
     FM270800 19004KT 5SM BR BKN050=



000
FTUS41 KOKX 261133
TAFGON
TAF
KGON 261133Z 2612/2712 22008KT P6SM FEW250
     FM261400 19010KT P6SM SCT250
     FM261800 19010G18KT P6SM SCT250
     FM262300 22007KT P6SM BKN250
     FM270600 21006KT P6SM OVC100
     FM270800 20005KT 4SM BR OVC015
      TEMPO 2708/2712 1SM BR BKN008=



000
FTUS41 KOKX 261133
TAFLGA
TAF
KLGA 261133Z 2612/2712 22010KT P6SM FEW250
     FM261800 19016G22KT P6SM SCT250
     FM270300 20012KT P6SM BKN250
     FM270700 20010KT 4SM BR BKN050=



000
FTUS41 KOKX 260830 AAA
TAFLGA
TAF AMD
KLGA 260830Z 2609/2706 22010KT P6SM FEW250
     FM261800 19016G22KT P6SM SCT250
     FM270300 20012KT P6SM BKN250=



000
FTUS41 KOKX 260830 AAA
TAFEWR
TAF AMD
KEWR 260830Z 2609/2712 21010KT P6SM FEW250
     FM261600 20013G22KT P6SM SCT250
     FM262000 21014G23KT P6SM SCT250
     FM270000 21010KT P6SM BKN250
     FM270700 21008KT 5SM BR BKN050=



000
FTUS41 KOKX 260830 AAA
TAFGON
TAF AMD
KGON 260830Z 2609/2706 22008KT P6SM FEW250
     FM261400 19010KT P6SM SCT250
     FM261800 19010G18KT P6SM SCT250
     FM262300 22007KT P6SM BKN250=



000
FTUS41 KOKX 260830 AAA
TAFISP
TAF AMD
KISP 260830Z 2609/2706 22013G18KT P6SM FEW250
     FM261600 18014G20KT P6SM SCT250
     FM261900 19015G22KT P6SM SCT250
     FM270400 20010KT P6SM BKN250=



000
FTUS41 KOKX 260830 AAA
TAFBDR
TAF AMD
KBDR 260830Z 2609/2706 22008KT P6SM FEW250
     FM261600 20010KT P6SM SCT250
     FM262100 19014G20KT P6SM SCT250
     FM270300 21008KT P6SM BKN250=



000
FTUS41 KOKX 260830 AAA
TAFJFK
TAF AMD
KJFK 260830Z 2609/2712 20012KT P6SM FEW250
     FM261600 19014KT P6SM SCT250
     FM262000 18020G26KT P6SM SCT250
     FM270300 20012KT P6SM BKN250
     FM270700 20010KT 4SM BR BKN050=



000
FTUS41 KOKX 260830 AAA
TAFSWF
TAF AMD
KSWF 260830Z 2609/2712 26008KT P6SM FEW250
     FM261500 23010KT P6SM SCT250
     FM261800 23012G20KT P6SM SCT250 PROB30 2620/2624 TSRA BKN050CB
     FM270000 23010KT P6SM SCT250
     FM270200 26005KT P6SM BKN250
     FM270600 20005KT 6SM -SHRA BR OVC100
      AMD NOT SKED=



000
FTUS41 KOKX 260830 AAA
TAFTEB
TAF AMD
KTEB 260830Z 2609/2706 21008KT P6SM FEW250
     FM261600 21011KT P6SM SCT250
     FM261900 19013G20KT P6SM SCT250
     FM270000 21010KT P6SM BKN250
     FM270500 20005KT P6SM BKN250=



000
FTUS41 KOKX 260533
TAFJFK
TAF
KJFK 260533Z 2606/2712 20012KT P6SM FEW250
     FM261600 19014KT P6SM SCT250
     FM262000 18020G26KT P6SM SCT250
     FM270300 20012KT P6SM BKN250
     FM270700 20010KT 4SM BR BKN050=



000
FTUS41 KOKX 260533
TAFGON
TAF
KGON 260533Z 2606/2706 23013G24KT P6SM FEW250
     FM260700 22008KT P6SM FEW250
     FM261400 19010KT P6SM SCT250
     FM261800 19010G18KT P6SM SCT250
     FM262300 22007KT P6SM BKN250=



000
FTUS41 KOKX 260533
TAFLGA
TAF
KLGA 260533Z 2606/2706 22010KT P6SM FEW250
     FM261800 19016G22KT P6SM SCT250
     FM270300 20012KT P6SM BKN250=



000
FTUS41 KOKX 260533
TAFTEB
TAF
KTEB 260533Z 2606/2706 21008KT P6SM FEW250
     FM261600 21011KT P6SM SCT250
     FM261900 19013G20KT P6SM SCT250
     FM270000 21010KT P6SM BKN250
     FM270500 20005KT P6SM BKN250=



000
FTUS41 KOKX 260533
TAFISP
TAF
KISP 260533Z 2606/2706 22013G18KT P6SM FEW250
     FM261600 18014G20KT P6SM SCT250
     FM261900 19015G22KT P6SM SCT250
     FM270400 20010KT P6SM BKN250=



000
FTUS41 KOKX 260533
TAFBDR
TAF
KBDR 260533Z 2606/2706 22008KT P6SM FEW250
     FM261600 20010KT P6SM SCT250
     FM262100 19014G20KT P6SM SCT250
     FM270300 21008KT P6SM BKN250=



000
FTUS41 KOKX 260533
TAFSWF
TAF
KSWF 260533Z 2606/2712 26008KT P6SM FEW250
     FM261500 23010KT P6SM SCT250
     FM261800 23012G20KT P6SM SCT250 PROB30 2620/2624 TSRA BKN050CB
     FM270000 23010KT P6SM SCT250
     FM270200 26005KT P6SM BKN250
     FM270600 20005KT 6SM -SHRA BR OVC100
      AMD NOT SKED=



000
FTUS41 KOKX 260533
TAFEWR
TAF
KEWR 260533Z 2606/2712 21010KT P6SM FEW250
     FM261600 20013G22KT P6SM SCT250
     FM262000 21014G23KT P6SM SCT250
     FM270000 21010KT P6SM BKN250
     FM270700 21008KT 5SM BR BKN050=



000
FTUS41 KOKX 260305 AAB
TAFGON
TAF AMD
KGON 260305Z 2603/2624 23013G24KT P6SM FEW250
     FM260700 22008KT P6SM FEW250
     FM261400 18009KT P6SM SCT250=



000
FTUS41 KOKX 260217 AAA
TAFBDR
TAF AMD
KBDR 260217Z 2602/2624 21014KT P6SM FEW250
     FM260400 22007KT P6SM FEW250
     FM261600 20010KT P6SM SCT250
     FM262100 18014G20KT P6SM SCT250=



000
FTUS41 KOKX 260217 AAA
TAFJFK
TAF AMD
KJFK 260217Z 2602/2706 19016G22KT P6SM SCT250
     FM260500 21012KT P6SM FEW250
     FM261600 19014KT P6SM SCT250
     FM262000 18020G26KT P6SM SCT250
     FM270300 20012KT P6SM FEW250=



000
FTUS41 KOKX 260217 AAA
TAFGON
TAF AMD
KGON 260217Z 2602/2624 22008KT P6SM FEW250
     FM261400 18009KT P6SM SCT250=



000
FTUS41 KOKX 260217 AAA
TAFISP
TAF AMD
KISP 260217Z 2602/2624 22017G24KT P6SM BKN250
     FM260400 22009KT P6SM FEW250
     FM261600 18011KT P6SM SCT250
     FM261900 19015G21KT P6SM SCT250=



000
FTUS41 KOKX 260217 AAA
TAFTEB
TAF AMD
KTEB 260217Z 2602/2624 21008KT P6SM FEW250
     FM261600 21011KT P6SM SCT250
     FM261900 19013G20KT P6SM SCT250=



000
FTUS41 KOKX 260217 AAB
TAFLGA
TAF AMD
KLGA 260217Z 2602/2624 20009KT P6SM FEW250
     FM261800 19016G22KT P6SM SCT250=



000
FTUS41 KOKX 260217 AAB
TAFEWR
TAF AMD
KEWR 260217Z 2602/2706 21010KT P6SM FEW250
     FM261600 19013G22KT P6SM SCT250
     FM262000 21014G23KT P6SM SCT250
     FM270000 21010KT P6SM FEW250=



000
FTUS41 KOKX 260147 AAA
TAFEWR
TAF AMD
KEWR 260147Z 2602/2706 20014KT P6SM FEW120 SCT250
     FM260300 22010KT P6SM FEW250
     FM261600 19013G22KT P6SM SCT250
     FM262000 21014G23KT P6SM SCT250
     FM270000 21010KT P6SM FEW250=



000
FTUS41 KOKX 260100 AAA
TAFLGA
TAF AMD
KLGA 260100Z 2601/2624 17010KT P6SM FEW100 SCT250
     FM260200 21010KT P6SM FEW250
     FM261800 19016G22KT P6SM SCT250=



000
FTUS41 KOKX 252320
TAFTEB
TAF
KTEB 252320Z 2600/2624 21013KT P6SM FEW250
     FM260500 22008KT P6SM FEW250
     FM261600 21011KT P6SM SCT250
     FM261900 19013G20KT P6SM SCT250=



000
FTUS41 KOKX 252320
TAFGON
TAF
KGON 252320Z 2600/2624 17006KT P6SM FEW250
     FM260100 22005KT P6SM FEW250
     FM261400 18009KT P6SM SCT250=



000
FTUS41 KOKX 252320
TAFLGA
TAF
KLGA 252320Z 2600/2624 19013KT P6SM FEW060 SCT250
     FM260200 23010KT P6SM FEW250
     FM261800 19016G22KT P6SM SCT250=



000
FTUS41 KOKX 252320
TAFJFK
TAF
KJFK 252320Z 2600/2706 19018G24KT P6SM FEW070 SCT250
     FM260300 21012KT P6SM FEW250
     FM261600 19014KT P6SM SCT250
     FM262000 18020G26KT P6SM SCT250
     FM270300 20012KT P6SM FEW250=



000
FTUS41 KOKX 252320
TAFSWF
TAF
KSWF 252320Z 2600/2706 24010G20KT P6SM SCT080 SCT250
     FM260100 26008KT P6SM FEW250
     FM261500 23010KT P6SM SCT250
     FM261800 23012G20KT P6SM SCT250
     FM262300 23010KT P6SM SCT250
     FM270100 26005KT P6SM FEW250
      AMD NOT SKED=



000
FTUS41 KOKX 252320
TAFBDR
TAF
KBDR 252320Z 2600/2624 19014G20KT P6SM FEW250
     FM260100 21012KT P6SM FEW250
     FM260400 22007KT P6SM FEW250
     FM261600 20010KT P6SM SCT250
     FM262100 18014G20KT P6SM SCT250=



000
FTUS41 KOKX 252320
TAFISP
TAF
KISP 252320Z 2600/2624 21014G19KT P6SM FEW150 SCT250
     FM260200 22009KT P6SM FEW250
     FM261600 18011KT P6SM SCT250
     FM261900 19015G21KT P6SM SCT250=



000
FTUS41 KOKX 252320
TAFEWR
TAF
KEWR 252320Z 2600/2706 22014G22KT P6SM FEW070 SCT250
     FM260300 22011KT P6SM FEW250
     FM261600 19013G22KT P6SM SCT250
     FM262000 21014G23KT P6SM SCT250
     FM270000 21010KT P6SM FEW250=



000
FTUS41 KOKX 251948 AAA
TAFLGA
TAF AMD
KLGA 251948Z 2520/2618 18019G26KT P6SM SCT250
     FM260000 19014G20KT P6SM FEW250
     FM260200 21009KT P6SM FEW150 FEW200=



000
FTUS41 KOKX 251948 AAA
TAFGON
TAF AMD
KGON 251948Z 2520/2618 19010KT P6SM SCT250
     FM260000 21006KT P6SM FEW150 FEW200
     FM261500 19010KT P6SM BKN200=



000
FTUS41 KOKX 251948 AAA
TAFTEB
TAF AMD
KTEB 251948Z 2520/2618 20014G21KT P6SM SCT250
     FM252300 20011KT P6SM FEW250
     FM260400 21008KT P6SM FEW150 FEW200=



000
FTUS41 KOKX 251948 AAA
TAFSWF
TAF AMD
KSWF 251948Z 2520/2624 22011G18KT P6SM SCT060 SCT250
     FM252300 24006KT P6SM FEW150 FEW200
     FM261600 23010G16KT P6SM SCT060 BKN200
      AMD NOT SKED=



000
FTUS41 KOKX 251948 AAA
TAFEWR
TAF AMD
KEWR 251948Z 2520/2624 20016G24KT P6SM SCT250
     FM260000 20011G18KT P6SM FEW250
     FM260200 22009KT P6SM FEW150 FEW200
     FM261700 21012G19KT P6SM SCT070 BKN200=



000
FTUS41 KOKX 251948 AAA
TAFISP
TAF AMD
KISP 251948Z 2520/2618 20015G22KT P6SM SCT250
     FM260000 21012G19KT P6SM FEW250
     FM260200 21010KT P6SM FEW150 FEW200
     FM261600 18011KT P6SM SCT070 SCT200=



000
FTUS41 KOKX 251948 AAA
TAFBDR
TAF AMD
KBDR 251948Z 2520/2618 18012KT P6SM SCT250
     FM260000 22007KT P6SM FEW150 FEW200
     FM261600 20012KT P6SM BKN200=



000
FTUS41 KOKX 251948 AAA
TAFJFK
TAF AMD
KJFK 251948Z 2520/2624 18021G28KT P6SM SCT250
     FM260000 19017G23KT P6SM FEW250
     FM260300 21011KT P6SM FEW150 FEW200
     FM261600 18014KT P6SM SCT070 SCT200
     FM262100 18019G25KT P6SM SCT070 BKN200=



000
FTUS41 KOKX 251729
TAFBDR
TAF
KBDR 251729Z 2518/2618 15007KT P6SM SCT250
     FM251900 18012KT P6SM SCT250
     FM260000 22007KT P6SM FEW150 FEW200
     FM261600 20012KT P6SM BKN200=



000
FTUS41 KOKX 251729
TAFEWR
TAF
KEWR 251729Z 2518/2624 20013G21KT P6SM SCT250
     FM252100 20016G24KT P6SM SCT250
     FM260000 20011G18KT P6SM FEW250
     FM260200 22009KT P6SM FEW150 FEW200
     FM261700 21012G19KT P6SM SCT070 BKN200=



000
FTUS41 KOKX 251729
TAFLGA
TAF
KLGA 251729Z 2518/2618 18014G22KT P6SM SCT250
     FM252000 19019G26KT P6SM SCT250
     FM260000 19014G20KT P6SM FEW250
     FM260200 21009KT P6SM FEW150 FEW200=



000
FTUS41 KOKX 251729
TAFISP
TAF
KISP 251729Z 2518/2618 19013KT P6SM SCT250
     FM252100 20016G23KT P6SM SCT250
     FM260000 21012G19KT P6SM FEW250
     FM260200 21010KT P6SM FEW150 FEW200
     FM261600 18011KT P6SM SCT070 SCT200=



000
FTUS41 KOKX 251729
TAFJFK
TAF
KJFK 251729Z 2518/2624 18018KT P6SM SCT250
     FM252000 18021G28KT P6SM SCT250
     FM260000 19017G23KT P6SM FEW250
     FM260300 21011KT P6SM FEW150 FEW200
     FM261600 18014KT P6SM SCT070 SCT200
     FM262100 18019G25KT P6SM SCT070 BKN200=



000
FTUS41 KOKX 251729
TAFTEB
TAF
KTEB 251729Z 2518/2618 17012G20KT P6SM FEW070 SCT250
     FM252000 20014G21KT P6SM SCT250
     FM252300 20011KT P6SM FEW250
     FM260400 21008KT P6SM FEW150 FEW200=



000
FTUS41 KOKX 251729
TAFSWF
TAF
KSWF 251729Z 2518/2624 22011G18KT P6SM SCT060 SCT250
     FM252300 24006KT P6SM FEW150 FEW200
     FM261600 23010G16KT P6SM SCT060 BKN200
      AMD NOT SKED=



000
FTUS41 KOKX 251729
TAFGON
TAF
KGON 251729Z 2518/2618 19010KT P6SM SCT250
     FM260000 21006KT P6SM FEW150 FEW200
     FM261500 19010KT P6SM BKN200=



000
FTUS41 KOKX 251450 CCA
TAFLGA
TAF COR
KLGA 251450Z 2515/2612 21008KT P6SM FEW150 SCT200
     FM251700 18014G22KT P6SM SCT200
     FM252000 19019G27KT P6SM FEW050 SCT250
     FM260200 21013KT P6SM BKN250=



000
FTUS41 KOKX 251445 AAA
TAFGON
TAF AMD
KGON 251445Z 2515/2612 18007KT P6SM BKN200
     FM251900 19012G18KT P6SM SCT250
     FM260000 21007KT P6SM BKN250=



000
FTUS41 KOKX 251445 AAA
TAFSWF
TAF AMD
KSWF 251445Z 2515/2618 24007KT P6SM SCT150 BKN200
     FM251800 24015G23KT P6SM FEW050 SCT200
     FM260000 24009KT P6SM BKN200
     FM260600 24006KT P6SM BKN250
     FM261500 25009KT P6SM BKN250
      AMD NOT SKED=



000
FTUS41 KOKX 251445 AAA
TAFSWF
TAF AMD
KSWF 251445Z 2515/2618 24007KT P6SM SCT150 BKN200
     FM251800 24015G23KT P6SM FEW050 SCT200
     FM260000 24009KT P6SM BKN200
     FM260600 24006KT P6SM BKN250
     FM261500 25009KT P6SM BKN250
      AMD NOT SKED=



000
FTUS41 KOKX 251445 AAA
TAFGON
TAF AMD
KGON 251445Z 2515/2612 18007KT P6SM BKN200
     FM251900 19012G18KT P6SM SCT250
     FM260000 21007KT P6SM BKN250=



000
FTUS41 KOKX 251439 AAA
TAFJFK
TAF AMD
KJFK 251439Z 2515/2618 20007KT P6SM FEW150 SCT200
     FM251600 19011KT P6SM SCT200
     FM251800 19018KT P6SM FEW050 SCT250
     FM252000 18023G30KT P6SM FEW050 SCT250
     FM260300 20015KT P6SM BKN250
     FM260600 20012KT P6SM BKN250
     FM261600 20014G20KT P6SM BKN250=



000
FTUS41 KOKX 251439 AAA
TAFTEB
TAF AMD
KTEB 251439Z 2515/2612 21009G16KT P6SM FEW150 SCT200
     FM251900 21014G21KT P6SM FEW050 SCT250
     FM260400 22008KT P6SM BKN250=



000
FTUS41 KOKX 251439 AAA
TAFEWR
TAF AMD
KEWR 251439Z 2515/2618 22011G19KT P6SM FEW150 SCT200
     FM251900 21016G24KT P6SM FEW050 SCT250
     FM260200 22010KT P6SM BKN250=



000
FTUS41 KOKX 251439 AAA
TAFTEB
TAF AMD
KTEB 251439Z 2515/2612 21009G16KT P6SM FEW150 SCT200
     FM251900 21014G21KT P6SM FEW050 SCT250
     FM260400 22008KT P6SM BKN250=



000
FTUS41 KOKX 251439 AAA
TAFISP
TAF AMD
KISP 251439Z 2515/2612 20012KT P6SM FEW150 SCT200
     FM251800 21017G25KT P6SM FEW050 SCT250
     FM260000 21013G20KT P6SM BKN250
     FM260200 21010KT P6SM BKN250=



000
FTUS41 KOKX 251439 AAA
TAFBDR
TAF AMD
KBDR 251439Z 2515/2612 21010KT P6SM SCT150 SCT200
     FM252000 20015G23KT P6SM SCT250
     FM260000 21010KT P6SM BKN250
     FM260500 21006KT P6SM BKN250=



000
FTUS41 KOKX 251439 AAA
TAFJFK
TAF AMD
KJFK 251439Z 2515/2618 20007KT P6SM FEW150 SCT200
     FM251600 19011KT P6SM SCT200
     FM251800 19018KT P6SM FEW050 SCT250
     FM252000 18023G30KT P6SM FEW050 SCT250
     FM260300 20015KT P6SM BKN250
     FM260600 20012KT P6SM BKN250
     FM261600 20014G20KT P6SM BKN250=



000
FTUS41 KOKX 251439 AAA
TAFLGA
TAF AMD
KLGA 251439Z 2515/2612 21008KT P6SM FEW150 SCT200
     FM251700 20014G22KT P6SM SCT200
     FM252000 20019G27KT P6SM FEW050 SCT250
     FM260200 21013KT P6SM BKN250=



000
FTUS41 KOKX 251439 AAA
TAFEWR
TAF AMD
KEWR 251439Z 2515/2618 22011G19KT P6SM FEW150 SCT200
     FM251900 21016G24KT P6SM FEW050 SCT250
     FM260200 22010KT P6SM BKN250=



000
FTUS41 KOKX 251439 AAA
TAFISP
TAF AMD
KISP 251439Z 2515/2612 20012KT P6SM FEW150 SCT200
     FM251800 21017G25KT P6SM FEW050 SCT250
     FM260000 21013G20KT P6SM BKN250
     FM260200 21010KT P6SM BKN250=



000
FTUS41 KOKX 251439 AAA
TAFBDR
TAF AMD
KBDR 251439Z 2515/2612 21010KT P6SM SCT150 SCT200
     FM252000 20015G23KT P6SM SCT250
     FM260000 21010KT P6SM BKN250
     FM260500 21006KT P6SM BKN250=



000
FTUS41 KOKX 251439 AAA
TAFLGA
TAF AMD
KLGA 251439Z 2515/2612 21008KT P6SM FEW150 SCT200
     FM251700 20014G22KT P6SM SCT200
     FM252000 20019G27KT P6SM FEW050 SCT250
     FM260200 21013KT P6SM BKN250=



000
FTUS41 KOKX 251122
TAFLGA
TAF
KLGA 251122Z 2512/2612 21006KT P6SM BKN150
     FM251600 20013G21KT P6SM SCT150 BKN200
     FM251900 20021G30KT P6SM FEW050 BKN200
     FM260300 21013KT P6SM BKN250=



000
FTUS41 KOKX 251122
TAFJFK
TAF
KJFK 251122Z 2512/2618 21007KT P6SM BKN150
     FM251600 19011KT P6SM SCT150 BKN200
     FM251800 19018KT P6SM FEW050 BKN200
     FM252000 18023G30KT P6SM FEW050 BKN250
     FM260300 20015G22KT P6SM BKN250
     FM260600 20012KT P6SM BKN250
     FM261600 20014G20KT P6SM BKN250=



000
FTUS41 KOKX 251122
TAFEWR
TAF
KEWR 251122Z 2512/2618 22008KT P6SM BKN150
     FM251500 22012G20KT P6SM SCT150 BKN200
     FM251700 22018G28KT P6SM FEW050 BKN200
     FM260100 21014G22KT P6SM BKN250
     FM260400 22010KT P6SM BKN250=



000
FTUS41 KOKX 251122
TAFBDR
TAF
KBDR 251122Z 2512/2612 22005KT P6SM BKN150
     FM251400 21010KT P6SM BKN150
     FM252000 20015G23KT P6SM BKN200
     FM260100 21010G20KT P6SM BKN250
     FM260500 21006KT P6SM BKN250=



000
FTUS41 KOKX 251122
TAFGON
TAF
KGON 251122Z 2512/2612 VRB03KT P6SM SCT150 BKN250
     FM251300 21008KT P6SM BKN150
     FM251800 19012G18KT P6SM BKN150
     FM260400 21007KT P6SM BKN250=



000
FTUS41 KOKX 251122
TAFSWF
TAF
KSWF 251122Z 2512/2618 VRB03KT P6SM BKN100
     FM251500 24012G19KT P6SM SCT150 BKN200
     FM251800 24015G24KT P6SM FEW050 BKN200
     FM260000 24009KT P6SM BKN200
     FM260600 24006KT P6SM BKN250
     FM261500 25009KT P6SM BKN250
      AMD NOT SKED=



000
FTUS41 KOKX 251122
TAFISP
TAF
KISP 251122Z 2512/2612 22007KT P6SM BKN250
     FM251500 20012G19KT P6SM BKN150
     FM251800 21017G25KT P6SM SCT150 BKN200
     FM260300 21013G20KT P6SM BKN250
     FM260600 21010KT P6SM BKN250=



000
FTUS41 KOKX 251122
TAFTEB
TAF
KTEB 251122Z 2512/2612 VRB04KT P6SM BKN150
     FM251300 21008KT P6SM BKN150
     FM251500 21010G17KT P6SM SCT150 BKN200
     FM251800 21017G26KT P6SM FEW050 BKN200
     FM260100 21012G20KT P6SM BKN250
     FM260400 22008KT P6SM BKN250=



000
FTUS41 KOKX 250830 AAA
TAFLGA
TAF AMD
KLGA 250830Z 2509/2606 21006KT P6SM BKN130
     FM251600 20013G21KT P6SM SCT130 BKN200
     FM251900 20021G30KT P6SM FEW050 BKN200
     FM260300 21013KT P6SM BKN250=



000
FTUS41 KOKX 250830 AAA
TAFEWR
TAF AMD
KEWR 250830Z 2509/2612 22008KT P6SM BKN130
     FM251500 22012G20KT P6SM SCT130 BKN200
     FM251700 22018G28KT P6SM FEW050 BKN200
     FM260100 21014G22KT P6SM BKN250
     FM260400 22010KT P6SM BKN250=



000
FTUS41 KOKX 250830 AAA
TAFISP
TAF AMD
KISP 250830Z 2509/2606 22007KT P6SM BKN250
     FM251500 20012G19KT P6SM BKN130
     FM251800 21017G25KT P6SM SCT130 BKN200
     FM260300 21013G20KT P6SM BKN250=



000
FTUS41 KOKX 250830 AAA
TAFSWF
TAF AMD
KSWF 250830Z 2509/2612 VRB03KT P6SM BKN100
     FM251500 24012G19KT P6SM SCT130 BKN200
     FM251800 24015G24KT P6SM FEW050 BKN200
     FM260000 24009KT P6SM BKN200
     FM260600 24005KT P6SM BKN250
      AMD NOT SKED=



000
FTUS41 KOKX 250830 AAA
TAFJFK
TAF AMD
KJFK 250830Z 2509/2612 21007KT P6SM BKN150
     FM251600 19011KT P6SM SCT130 BKN200
     FM251800 19018KT P6SM FEW050 BKN200
     FM252000 18023G30KT P6SM FEW050 BKN250
     FM260300 20015G22KT P6SM BKN250
     FM260600 20012KT P6SM BKN250=



000
FTUS41 KOKX 250830 AAA
TAFBDR
TAF AMD
KBDR 250830Z 2509/2606 22005KT P6SM BKN130
     FM251400 21010KT P6SM BKN130
     FM252000 20015G23KT P6SM BKN200
     FM260100 21010G20KT P6SM BKN250
     FM260500 21006KT P6SM BKN250=



000
FTUS41 KOKX 250830 AAA
TAFGON
TAF AMD
KGON 250830Z 2509/2606 VRB03KT P6SM SCT150 BKN250
     FM251300 21008KT P6SM BKN120
     FM251800 19012G18KT P6SM BKN150
     FM260400 21007KT P6SM BKN250=



000
FTUS41 KOKX 250830 AAA
TAFTEB
TAF AMD
KTEB 250830Z 2509/2606 VRB04KT P6SM BKN130
     FM251300 21008KT P6SM BKN130
     FM251500 21010G17KT P6SM SCT130 BKN200
     FM251800 21017G26KT P6SM FEW050 BKN200
     FM260100 21012G20KT P6SM BKN250
     FM260400 22008KT P6SM BKN250=



000
FTUS41 KOKX 250535
TAFGON
TAF
KGON 250535Z 2506/2606 VRB03KT P6SM SCT150 BKN250
     FM251300 21008KT P6SM BKN120
     FM251800 19012G18KT P6SM BKN150
     FM260400 21007KT P6SM BKN250=



000
FTUS41 KOKX 250535
TAFEWR
TAF
KEWR 250535Z 2506/2612 22008KT P6SM BKN130
     FM251500 22012G20KT P6SM SCT130 BKN200
     FM251700 22018G28KT P6SM FEW050 BKN200
     FM260100 21014G22KT P6SM BKN250
     FM260400 22010KT P6SM BKN250=



000
FTUS41 KOKX 250535
TAFLGA
TAF
KLGA 250535Z 2506/2606 21006KT P6SM BKN130
     FM251600 20013G21KT P6SM SCT130 BKN200
     FM251900 20021G30KT P6SM FEW050 BKN200
     FM260300 21013KT P6SM BKN250=



000
FTUS41 KOKX 250535
TAFTEB
TAF
KTEB 250535Z 2506/2606 VRB04KT P6SM BKN130
     FM251300 21008KT P6SM BKN130
     FM251500 21010G17KT P6SM SCT130 BKN200
     FM251800 21017G26KT P6SM FEW050 BKN200
     FM260100 21012G20KT P6SM BKN250
     FM260400 22008KT P6SM BKN250=



000
FTUS41 KOKX 250535
TAFJFK
TAF
KJFK 250535Z 2506/2612 21007KT P6SM BKN150
     FM251600 19011KT P6SM SCT130 BKN200
     FM251800 19018KT P6SM FEW050 BKN200
     FM252000 18023G30KT P6SM FEW050 BKN250
     FM260300 20015G22KT P6SM BKN250
     FM260600 20012KT P6SM BKN250=



000
FTUS41 KOKX 250535
TAFISP
TAF
KISP 250535Z 2506/2606 22007KT P6SM BKN250
     FM251500 20012G19KT P6SM BKN130
     FM251800 21017G25KT P6SM SCT130 BKN200
     FM260300 21013G20KT P6SM BKN250=



000
FTUS41 KOKX 250535
TAFBDR
TAF
KBDR 250535Z 2506/2606 22005KT P6SM BKN130
     FM251400 21010KT P6SM BKN130
     FM252000 20015G23KT P6SM BKN200
     FM260100 21010G20KT P6SM BKN250
     FM260500 21006KT P6SM BKN250=



000
FTUS41 KOKX 250535
TAFSWF
TAF
KSWF 250535Z 2506/2612 VRB03KT P6SM BKN100
     FM251500 24012G19KT P6SM SCT130 BKN200
     FM251800 24015G24KT P6SM FEW050 BKN200
     FM260000 24009KT P6SM BKN200
     FM260600 24005KT P6SM BKN250
      AMD NOT SKED=



000
FTUS41 KOKX 250535
TAFGON
TAF
KGON 250535Z 2506/2606 VRB03KT P6SM SCT150 BKN250
     FM251300 21008KT P6SM BKN120
     FM251800 19012G18KT P6SM BKN150
     FM260400 21007KT P6SM BKN250=



000
FTUS41 KOKX 250535
TAFJFK
TAF
KJFK 250535Z 2506/2612 21007KT P6SM BKN150
     FM251600 19011KT P6SM SCT130 BKN200
     FM251800 19018KT P6SM FEW050 BKN200
     FM252000 18023G30KT P6SM FEW050 BKN250
     FM260300 20015G22KT P6SM BKN250
     FM260600 20012KT P6SM BKN250=



000
FTUS41 KOKX 250535
TAFTEB
TAF
KTEB 250535Z 2506/2606 VRB04KT P6SM BKN130
     FM251300 21008KT P6SM BKN130
     FM251500 21010G17KT P6SM SCT130 BKN200
     FM251800 21017G26KT P6SM FEW050 BKN200
     FM260100 21012G20KT P6SM BKN250
     FM260400 22008KT P6SM BKN250=



000
FTUS41 KOKX 250535
TAFSWF
TAF
KSWF 250535Z 2506/2612 VRB03KT P6SM BKN100
     FM251500 24012G19KT P6SM SCT130 BKN200
     FM251800 24015G24KT P6SM FEW050 BKN200
     FM260000 24009KT P6SM BKN200
     FM260600 24005KT P6SM BKN250
      AMD NOT SKED=



000
FTUS41 KOKX 250535
TAFISP
TAF
KISP 250535Z 2506/2606 22007KT P6SM BKN250
     FM251500 20012G19KT P6SM BKN130
     FM251800 21017G25KT P6SM SCT130 BKN200
     FM260300 21013G20KT P6SM BKN250=



000
FTUS41 KOKX 250535
TAFBDR
TAF
KBDR 250535Z 2506/2606 22005KT P6SM BKN130
     FM251400 21010KT P6SM BKN130
     FM252000 20015G23KT P6SM BKN200
     FM260100 21010G20KT P6SM BKN250
     FM260500 21006KT P6SM BKN250=



000
FTUS41 KOKX 250535
TAFEWR
TAF
KEWR 250535Z 2506/2612 22008KT P6SM BKN130
     FM251500 22012G20KT P6SM SCT130 BKN200
     FM251700 22018G28KT P6SM FEW050 BKN200
     FM260100 21014G22KT P6SM BKN250
     FM260400 22010KT P6SM BKN250=



000
FTUS41 KOKX 250535
TAFLGA
TAF
KLGA 250535Z 2506/2606 21006KT P6SM BKN130
     FM251600 20013G21KT P6SM SCT130 BKN200
     FM251900 20021G30KT P6SM FEW050 BKN200
     FM260300 21013KT P6SM BKN250=



000
FTUS41 KOKX 250236 AAA
TAFEWR
TAF AMD
KEWR 250236Z 2503/2606 22008KT P6SM BKN130
     FM251500 22012G20KT P6SM SCT130 BKN200
     FM251700 22018G28KT P6SM FEW050 BKN200
     FM260100 21014G22KT P6SM BKN250=



000
FTUS41 KOKX 250236 AAA
TAFGON
TAF AMD
KGON 250236Z 2503/2524 23005KT P6SM BKN250
     FM250500 VRB03KT P6SM SCT150 BKN250
     FM251300 21008KT P6SM BKN120
     FM251800 19012G18KT P6SM BKN150=



000
FTUS41 KOKX 250236 AAA
TAFBDR
TAF AMD
KBDR 250236Z 2503/2524 22005KT P6SM BKN130
     FM251400 21010KT P6SM BKN130
     FM252000 20015G23KT P6SM BKN200=



000
FTUS41 KOKX 250236 AAA
TAFLGA
TAF AMD
KLGA 250236Z 2503/2524 18007KT P6SM BKN250
     FM250400 21006KT P6SM BKN130
     FM251600 20013G21KT P6SM SCT130 BKN200
     FM251900 20021G30KT P6SM FEW050 BKN200=



000
FTUS41 KOKX 250236 AAA
TAFJFK
TAF AMD
KJFK 250236Z 2503/2606 20013KT P6SM BKN250
     FM250400 21007KT P6SM BKN130
     FM251600 19011KT P6SM SCT130 BKN200
     FM251800 19018KT P6SM FEW050 BKN200
     FM252100 18023G30KT P6SM FEW050 BKN250
     FM260300 20015G22KT P6SM BKN250=



000
FTUS41 KOKX 250236 AAA
TAFISP
TAF AMD
KISP 250236Z 2503/2524 22007KT P6SM BKN250
     FM251500 20012G19KT P6SM BKN130
     FM251800 21017G25KT P6SM SCT130 BKN200=



000
FTUS41 KOKX 250236 AAA
TAFTEB
TAF AMD
KTEB 250236Z 2503/2524 VRB04KT P6SM BKN130
     FM251300 20008KT P6SM BKN130
     FM251500 21010G17KT P6SM SCT130 BKN200
     FM251800 21017G26KT P6SM FEW050 BKN200=



000
FTUS41 KOKX 242349
TAFGON
TAF
KGON 242349Z 2500/2524 22007KT P6SM BKN250
     FM250300 VRB03KT P6SM BKN250
     FM251300 21008KT P6SM BKN120
     FM251800 19012G18KT P6SM BKN150=



000
FTUS41 KOKX 242349
TAFBDR
TAF
KBDR 242349Z 2500/2524 23008KT P6SM BKN250
     FM250600 22004KT P6SM BKN130
     FM251400 21010KT P6SM BKN130
     FM252000 20015G23KT P6SM BKN200=



000
FTUS41 KOKX 242349
TAFGON
TAF
KGON 242349Z 2500/2524 22007KT P6SM BKN250
     FM250300 VRB03KT P6SM BKN250
     FM251300 21008KT P6SM BKN120
     FM251800 19012G18KT P6SM BKN150=



000
FTUS41 KOKX 242349
TAFBDR
TAF
KBDR 242349Z 2500/2524 23008KT P6SM BKN250
     FM250600 22004KT P6SM BKN130
     FM251400 21010KT P6SM BKN130
     FM252000 20015G23KT P6SM BKN200=



000
FTUS41 KOKX 242340
TAFSWF
TAF
KSWF 242340Z 2500/2606 23005KT P6SM SCT250
     FM250200 VRB03KT P6SM BKN100
     FM251500 24012G19KT P6SM SCT130 BKN200
     FM251800 24015G24KT P6SM FEW050 BKN200
     FM260000 24009KT P6SM BKN200
      AMD NOT SKED=



000
FTUS41 KOKX 242336
TAFEWR
TAF
KEWR 242336Z 2500/2606 23008KT P6SM BKN250
     FM251500 22012G20KT P6SM SCT130 BKN200
     FM251700 22018G28KT P6SM FEW050 BKN200
     FM260100 21014G22KT P6SM BKN250=



000
FTUS41 KOKX 242336
TAFISP
TAF
KISP 242336Z 2500/2524 21011KT P6SM BKN250
     FM250200 22007KT P6SM BKN250
     FM251500 20012G19KT P6SM BKN130
     FM251800 21017G25KT P6SM SCT130 BKN200=



000
FTUS41 KOKX 242336
TAFJFK
TAF
KJFK 242336Z 2500/2606 18017KT P6SM FEW050 BKN250
     FM250200 20013KT P6SM BKN250
     FM250400 21007KT P6SM BKN130
     FM251600 19011KT P6SM SCT130 BKN200
     FM251800 19018KT P6SM FEW050 BKN200
     FM252100 18023G30KT P6SM FEW050 BKN250
     FM260300 20015G22KT P6SM BKN250=



000
FTUS41 KOKX 242336
TAFTEB
TAF
KTEB 242336Z 2500/2524 16009KT P6SM BKN250
     FM250200 19007KT P6SM BKN250
     FM250600 VRB03KT P6SM BKN130
     FM251300 20008KT P6SM BKN130
     FM251500 21010G17KT P6SM SCT130 BKN200
     FM251800 21017G26KT P6SM FEW050 BKN200=



000
FTUS41 KOKX 242336
TAFLGA
TAF
KLGA 242336Z 2500/2524 18010KT P6SM FEW050 BKN250
     FM250200 20007KT P6SM BKN250
     FM251600 20013G21KT P6SM SCT130 BKN200
     FM251900 20021G30KT P6SM FEW050 BKN200=



000
FTUS41 KOKX 241940 AAA
TAFTEB
TAF AMD
KTEB 241940Z 2420/2518 23010G17KT P6SM SCT250
     FM242200 20010G16KT P6SM SCT250
     FM250100 21005KT P6SM BKN150
     FM251500 21010G17KT P6SM SCT150 BKN200=



000
FTUS41 KOKX 241940 AAA
TAFISP
TAF AMD
KISP 241940Z 2420/2518 21015G21KT P6SM SCT250
     FM250000 21010KT P6SM SCT250
     FM250300 21006KT P6SM BKN150
     FM251400 20012KT P6SM SCT150 BKN200=



000
FTUS41 KOKX 241940 AAA
TAFJFK
TAF AMD
KJFK 241940Z 2420/2524 18019KT P6SM SCT250
     FM250100 20012KT P6SM BKN250
     FM250400 21007KT P6SM BKN150
     FM251500 19011KT P6SM BKN120
     FM251800 19017KT P6SM SCT200
     FM252100 18021G26KT P6SM SCT250=



000
FTUS41 KOKX 241940 AAA
TAFTEB
TAF AMD
KTEB 241940Z 2420/2518 23010G17KT P6SM SCT250
     FM242200 20010G16KT P6SM SCT250
     FM250100 21005KT P6SM BKN150
     FM251500 21010G17KT P6SM SCT150 BKN200=



000
FTUS41 KOKX 241940 AAA
TAFISP
TAF AMD
KISP 241940Z 2420/2518 21015G21KT P6SM SCT250
     FM250000 21010KT P6SM SCT250
     FM250300 21006KT P6SM BKN150
     FM251400 20012KT P6SM SCT150 BKN200=



000
FTUS41 KOKX 241940 AAA
TAFJFK
TAF AMD
KJFK 241940Z 2420/2524 18019KT P6SM SCT250
     FM250100 20012KT P6SM BKN250
     FM250400 21007KT P6SM BKN150
     FM251500 19011KT P6SM BKN120
     FM251800 19017KT P6SM SCT200
     FM252100 18021G26KT P6SM SCT250=



000
FTUS41 KOKX 241940 AAA
TAFBDR
TAF AMD
KBDR 241940Z 2420/2518 22013KT P6SM SCT250
     FM242300 22009KT P6SM SCT250
     FM250200 22005KT P6SM BKN150
     FM251400 22013KT P6SM SCT150 BKN200=



000
FTUS41 KOKX 241940 AAA
TAFGON
TAF AMD
KGON 241940Z 2420/2518 23013G19KT P6SM SCT250
     FM242300 22009KT P6SM SCT250
     FM250200 22005KT P6SM BKN150
     FM251400 22012KT P6SM SCT150 BKN200=



000
FTUS41 KOKX 241940 AAA
TAFLGA
TAF AMD
KLGA 241940Z 2420/2518 18015G22KT P6SM SCT250
     FM250100 21010KT P6SM BKN250
     FM250400 21006KT P6SM BKN150
     FM251700 18012G19KT P6SM SCT200=



000
FTUS41 KOKX 241940 AAA
TAFLGA
TAF AMD
KLGA 241940Z 2420/2518 18015G22KT P6SM SCT250
     FM250100 21010KT P6SM BKN250
     FM250400 21006KT P6SM BKN150
     FM251700 18012G19KT P6SM SCT200=



000
FTUS41 KOKX 241940 AAA
TAFEWR
TAF AMD
KEWR 241940Z 2420/2524 22011G19KT P6SM SCT250
     FM250100 22009KT P6SM BKN250
     FM250400 22005KT P6SM BKN150
     FM251500 22012G19KT P6SM SCT150 BKN200
     FM252100 20016G21KT P6SM SCT250=



000
FTUS41 KOKX 241940 AAA
TAFEWR
TAF AMD
KEWR 241940Z 2420/2524 22011G19KT P6SM SCT250
     FM250100 22009KT P6SM BKN250
     FM250400 22005KT P6SM BKN150
     FM251500 22012G19KT P6SM SCT150 BKN200
     FM252100 20016G21KT P6SM SCT250=



000
FTUS41 KOKX 241940 AAA
TAFBDR
TAF AMD
KBDR 241940Z 2420/2518 22013KT P6SM SCT250
     FM242300 22009KT P6SM SCT250
     FM250200 22005KT P6SM BKN150
     FM251400 22013KT P6SM SCT150 BKN200=



000
FTUS41 KOKX 241940 AAA
TAFSWF
TAF AMD
KSWF 241940Z 2420/2524 23010KT P6SM SCT250
     FM250200 VRB03KT P6SM BKN120
     FM251500 24010KT P6SM SCT150 BKN200
     FM251900 24013G19KT P6SM SCT200
      AMD NOT SKED=



    US Dept of Commerce
    National Oceanic and Atmospheric Administration
    National Weather Service
    1325 East West Highway
    Silver Spring, MD 20910
    Page Author: NWS Internet Services Team
Disclaimer
Information Quality
Credits
Glossary
Privacy Policy
Freedom of Information Act (FOIA)
About Us
Career Opportunities